
<gpx xmlns="http://www.topografix.com/GPX/1/1" xmlns:gpxx="http://www.garmin.com/xmlschemas/GpxExtensions/v3" xmlns:xsi="http://www.w3.org/2001/XMLSchema-instance" version="1.1" creator="Adze - https://getadze.com/" xsi:schemaLocation="http://www.topografix.com/GPX/1/1 http://www.topografix.com/GPX/1/1/gpx.xsd http://www.garmin.com/xmlschemas/GpxExtensions/v3 http://www8.garmin.com/xmlschemas/GpxExtensionsv3.xsd">
    <metadata>
        <name>Untitled Document</name>
        <link href="http://www.garmin.com"></link>
        <time>2018-03-06T04:38:37.845Z</time>
    </metadata>
    <wpt lon="101.191029" lat="14.706620">
        <name>Rai Arunwit Resort</name>
    </wpt>
    <trk>
        <name>November 2006 - Saturday</name>
        <extensions>
            <gpxx:TrackExtension>
                <gpxx:DisplayColor>DarkGray</gpxx:DisplayColor>
            </gpxx:TrackExtension>
        </extensions>
        <trkseg>
            <trkpt lon="101.166916" lat="14.684408">
                <ele>194.323730</ele>
                <time>2006-11-25T09:48:13Z</time>
            </trkpt>
            <trkpt lon="101.167881" lat="14.684386">
                <ele>176.539307</ele>
                <time>2006-11-25T09:48:40Z</time>
            </trkpt>
            <trkpt lon="101.168461" lat="14.684386">
                <ele>179.423218</ele>
                <time>2006-11-25T09:48:59Z</time>
            </trkpt>
            <trkpt lon="101.168826" lat="14.684429">
                <ele>182.307129</ele>
                <time>2006-11-25T09:49:17Z</time>
            </trkpt>
            <trkpt lon="101.169169" lat="14.684429">
                <ele>191.920288</ele>
                <time>2006-11-25T09:49:34Z</time>
            </trkpt>
            <trkpt lon="101.169491" lat="14.684408">
                <ele>196.726929</ele>
                <time>2006-11-25T09:49:54Z</time>
            </trkpt>
            <trkpt lon="101.169512" lat="14.684408">
                <ele>200.091675</ele>
                <time>2006-11-25T09:50:09Z</time>
            </trkpt>
            <trkpt lon="101.169534" lat="14.684429">
                <ele>202.014282</ele>
                <time>2006-11-25T09:50:26Z</time>
            </trkpt>
            <trkpt lon="101.169555" lat="14.684408">
                <ele>204.898071</ele>
                <time>2006-11-25T09:50:50Z</time>
            </trkpt>
            <trkpt lon="101.169941" lat="14.684343">
                <ele>207.301392</ele>
                <time>2006-11-25T09:51:06Z</time>
            </trkpt>
            <trkpt lon="101.170585" lat="14.684279">
                <ele>209.224121</ele>
                <time>2006-11-25T09:51:30Z</time>
            </trkpt>
            <trkpt lon="101.171122" lat="14.684215">
                <ele>209.704834</ele>
                <time>2006-11-25T09:51:53Z</time>
            </trkpt>
            <trkpt lon="101.171572" lat="14.684150">
                <ele>213.550049</ele>
                <time>2006-11-25T09:52:14Z</time>
            </trkpt>
            <trkpt lon="101.172130" lat="14.684064">
                <ele>214.991943</ele>
                <time>2006-11-25T09:52:30Z</time>
            </trkpt>
            <trkpt lon="101.172860" lat="14.683957">
                <ele>208.743408</ele>
                <time>2006-11-25T09:52:42Z</time>
            </trkpt>
            <trkpt lon="101.173053" lat="14.683914">
                <ele>208.262817</ele>
                <time>2006-11-25T09:52:44Z</time>
            </trkpt>
            <trkpt lon="101.174126" lat="14.683335">
                <ele>205.859497</ele>
                <time>2006-11-25T09:52:55Z</time>
            </trkpt>
            <trkpt lon="101.174963" lat="14.682734">
                <ele>204.898071</ele>
                <time>2006-11-25T09:53:06Z</time>
            </trkpt>
            <trkpt lon="101.175456" lat="14.682305">
                <ele>203.936890</ele>
                <time>2006-11-25T09:53:17Z</time>
            </trkpt>
            <trkpt lon="101.175928" lat="14.681919">
                <ele>203.936890</ele>
                <time>2006-11-25T09:53:33Z</time>
            </trkpt>
            <trkpt lon="101.176422" lat="14.681532">
                <ele>202.975464</ele>
                <time>2006-11-25T09:53:51Z</time>
            </trkpt>
            <trkpt lon="101.176894" lat="14.681382">
                <ele>202.014282</ele>
                <time>2006-11-25T09:54:07Z</time>
            </trkpt>
            <trkpt lon="101.177044" lat="14.681361">
                <ele>202.975464</ele>
                <time>2006-11-25T09:54:15Z</time>
            </trkpt>
            <trkpt lon="101.177087" lat="14.681339">
                <ele>203.456177</ele>
                <time>2006-11-25T09:54:19Z</time>
            </trkpt>
            <trkpt lon="101.177065" lat="14.681296">
                <ele>203.936890</ele>
                <time>2006-11-25T09:54:24Z</time>
            </trkpt>
            <trkpt lon="101.176572" lat="14.681404">
                <ele>202.975464</ele>
                <time>2006-11-25T09:54:38Z</time>
            </trkpt>
            <trkpt lon="101.176143" lat="14.681704">
                <ele>202.975464</ele>
                <time>2006-11-25T09:54:52Z</time>
            </trkpt>
            <trkpt lon="101.175649" lat="14.682090">
                <ele>201.052856</ele>
                <time>2006-11-25T09:55:11Z</time>
            </trkpt>
            <trkpt lon="101.175370" lat="14.682348">
                <ele>199.610840</ele>
                <time>2006-11-25T09:55:21Z</time>
            </trkpt>
            <trkpt lon="101.175413" lat="14.682348">
                <ele>199.130127</ele>
                <time>2006-11-25T09:55:30Z</time>
            </trkpt>
            <trkpt lon="101.175413" lat="14.682348">
                <ele>198.168945</ele>
                <time>2006-11-25T09:55:39Z</time>
            </trkpt>
            <trkpt lon="101.175456" lat="14.682305">
                <ele>198.168945</ele>
                <time>2006-11-25T09:55:43Z</time>
            </trkpt>
            <trkpt lon="101.175907" lat="14.681919">
                <ele>198.649536</ele>
                <time>2006-11-25T09:56:03Z</time>
            </trkpt>
            <trkpt lon="101.176507" lat="14.681489">
                <ele>199.130127</ele>
                <time>2006-11-25T09:56:21Z</time>
            </trkpt>
            <trkpt lon="101.177216" lat="14.681318">
                <ele>200.572266</ele>
                <time>2006-11-25T09:56:40Z</time>
            </trkpt>
            <trkpt lon="101.177602" lat="14.681253">
                <ele>204.417480</ele>
                <time>2006-11-25T09:56:57Z</time>
            </trkpt>
            <trkpt lon="101.177924" lat="14.681168">
                <ele>205.378784</ele>
                <time>2006-11-25T09:57:15Z</time>
            </trkpt>
            <trkpt lon="101.178267" lat="14.681082">
                <ele>210.666016</ele>
                <time>2006-11-25T09:57:37Z</time>
            </trkpt>
            <trkpt lon="101.178589" lat="14.680974">
                <ele>213.550049</ele>
                <time>2006-11-25T09:57:56Z</time>
            </trkpt>
            <trkpt lon="101.178932" lat="14.680781">
                <ele>214.030640</ele>
                <time>2006-11-25T09:58:15Z</time>
            </trkpt>
            <trkpt lon="101.179318" lat="14.680417">
                <ele>217.395386</ele>
                <time>2006-11-25T09:58:34Z</time>
            </trkpt>
            <trkpt lon="101.179361" lat="14.680352">
                <ele>217.875977</ele>
                <time>2006-11-25T09:58:36Z</time>
            </trkpt>
            <trkpt lon="101.179726" lat="14.679601">
                <ele>218.837280</ele>
                <time>2006-11-25T09:58:51Z</time>
            </trkpt>
            <trkpt lon="101.180069" lat="14.679129">
                <ele>217.875977</ele>
                <time>2006-11-25T09:58:59Z</time>
            </trkpt>
            <trkpt lon="101.180670" lat="14.678850">
                <ele>217.875977</ele>
                <time>2006-11-25T09:59:11Z</time>
            </trkpt>
            <trkpt lon="101.180735" lat="14.678829">
                <ele>217.395386</ele>
                <time>2006-11-25T09:59:13Z</time>
            </trkpt>
            <trkpt lon="101.180799" lat="14.678915">
                <ele>217.875977</ele>
                <time>2006-11-25T09:59:19Z</time>
            </trkpt>
            <trkpt lon="101.180756" lat="14.679365">
                <ele>218.837280</ele>
                <time>2006-11-25T09:59:35Z</time>
            </trkpt>
            <trkpt lon="101.180756" lat="14.679816">
                <ele>219.798584</ele>
                <time>2006-11-25T09:59:54Z</time>
            </trkpt>
            <trkpt lon="101.180756" lat="14.679987">
                <ele>221.240601</ele>
                <time>2006-11-25T10:00:07Z</time>
            </trkpt>
            <trkpt lon="101.180670" lat="14.680331">
                <ele>223.163208</ele>
                <time>2006-11-25T10:00:21Z</time>
            </trkpt>
            <trkpt lon="101.180542" lat="14.680696">
                <ele>225.085938</ele>
                <time>2006-11-25T10:00:38Z</time>
            </trkpt>
            <trkpt lon="101.180434" lat="14.681146">
                <ele>226.527832</ele>
                <time>2006-11-25T10:00:56Z</time>
            </trkpt>
            <trkpt lon="101.180348" lat="14.681661">
                <ele>228.450439</ele>
                <time>2006-11-25T10:01:19Z</time>
            </trkpt>
            <trkpt lon="101.180220" lat="14.682176">
                <ele>227.969727</ele>
                <time>2006-11-25T10:01:42Z</time>
            </trkpt>
            <trkpt lon="101.180155" lat="14.682691">
                <ele>227.489136</ele>
                <time>2006-11-25T10:02:01Z</time>
            </trkpt>
            <trkpt lon="101.180220" lat="14.683163">
                <ele>226.527832</ele>
                <time>2006-11-25T10:02:16Z</time>
            </trkpt>
            <trkpt lon="101.180263" lat="14.683592">
                <ele>224.124512</ele>
                <time>2006-11-25T10:02:30Z</time>
            </trkpt>
            <trkpt lon="101.180413" lat="14.684365">
                <ele>220.759888</ele>
                <time>2006-11-25T10:02:45Z</time>
            </trkpt>
            <trkpt lon="101.180263" lat="14.684858">
                <ele>220.279175</ele>
                <time>2006-11-25T10:02:56Z</time>
            </trkpt>
            <trkpt lon="101.180155" lat="14.684901">
                <ele>220.279175</ele>
                <time>2006-11-25T10:03:00Z</time>
            </trkpt>
            <trkpt lon="101.179898" lat="14.684944">
                <ele>220.279175</ele>
                <time>2006-11-25T10:03:17Z</time>
            </trkpt>
            <trkpt lon="101.179812" lat="14.684966">
                <ele>219.798584</ele>
                <time>2006-11-25T10:03:30Z</time>
            </trkpt>
            <trkpt lon="101.179726" lat="14.684987">
                <ele>226.047119</ele>
                <time>2006-11-25T10:03:50Z</time>
            </trkpt>
            <trkpt lon="101.179512" lat="14.685051">
                <ele>226.047119</ele>
                <time>2006-11-25T10:04:13Z</time>
            </trkpt>
            <trkpt lon="101.179404" lat="14.685137">
                <ele>225.566528</ele>
                <time>2006-11-25T10:04:27Z</time>
            </trkpt>
            <trkpt lon="101.179104" lat="14.685245">
                <ele>225.566528</ele>
                <time>2006-11-25T10:04:48Z</time>
            </trkpt>
            <trkpt lon="101.178997" lat="14.685330">
                <ele>227.008545</ele>
                <time>2006-11-25T10:05:33Z</time>
            </trkpt>
            <trkpt lon="101.178975" lat="14.685438">
                <ele>227.008545</ele>
                <time>2006-11-25T10:05:54Z</time>
            </trkpt>
            <trkpt lon="101.178975" lat="14.685481">
                <ele>227.008545</ele>
                <time>2006-11-25T10:05:58Z</time>
            </trkpt>
            <trkpt lon="101.178975" lat="14.685545">
                <ele>227.008545</ele>
                <time>2006-11-25T10:06:06Z</time>
            </trkpt>
            <trkpt lon="101.179104" lat="14.685631">
                <ele>227.008545</ele>
                <time>2006-11-25T10:06:28Z</time>
            </trkpt>
            <trkpt lon="101.179190" lat="14.685695">
                <ele>226.047119</ele>
                <time>2006-11-25T10:06:45Z</time>
            </trkpt>
            <trkpt lon="101.179361" lat="14.685781">
                <ele>229.411743</ele>
                <time>2006-11-25T10:07:04Z</time>
            </trkpt>
            <trkpt lon="101.179533" lat="14.685888">
                <ele>225.566528</ele>
                <time>2006-11-25T10:07:22Z</time>
            </trkpt>
            <trkpt lon="101.179769" lat="14.686189">
                <ele>226.527832</ele>
                <time>2006-11-25T10:07:40Z</time>
            </trkpt>
            <trkpt lon="101.179748" lat="14.686253">
                <ele>226.047119</ele>
                <time>2006-11-25T10:07:43Z</time>
            </trkpt>
            <trkpt lon="101.179705" lat="14.686275">
                <ele>224.605225</ele>
                <time>2006-11-25T10:07:48Z</time>
            </trkpt>
            <trkpt lon="101.179662" lat="14.686661">
                <ele>223.163208</ele>
                <time>2006-11-25T10:08:01Z</time>
            </trkpt>
            <trkpt lon="101.179426" lat="14.686961">
                <ele>221.240601</ele>
                <time>2006-11-25T10:08:15Z</time>
            </trkpt>
            <trkpt lon="101.179211" lat="14.687111">
                <ele>219.798584</ele>
                <time>2006-11-25T10:08:29Z</time>
            </trkpt>
            <trkpt lon="101.179018" lat="14.687197">
                <ele>219.317993</ele>
                <time>2006-11-25T10:08:42Z</time>
            </trkpt>
            <trkpt lon="101.178567" lat="14.687369">
                <ele>217.395386</ele>
                <time>2006-11-25T10:09:04Z</time>
            </trkpt>
            <trkpt lon="101.178482" lat="14.687498">
                <ele>214.511230</ele>
                <time>2006-11-25T10:09:21Z</time>
            </trkpt>
            <trkpt lon="101.178460" lat="14.687648">
                <ele>215.953247</ele>
                <time>2006-11-25T10:09:44Z</time>
            </trkpt>
            <trkpt lon="101.178374" lat="14.687712">
                <ele>217.875977</ele>
                <time>2006-11-25T10:10:01Z</time>
            </trkpt>
            <trkpt lon="101.178396" lat="14.687777">
                <ele>226.047119</ele>
                <time>2006-11-25T10:10:20Z</time>
            </trkpt>
            <trkpt lon="101.178417" lat="14.687819">
                <ele>227.969727</ele>
                <time>2006-11-25T10:10:27Z</time>
            </trkpt>
            <trkpt lon="101.178482" lat="14.687948">
                <ele>226.047119</ele>
                <time>2006-11-25T10:10:42Z</time>
            </trkpt>
            <trkpt lon="101.178589" lat="14.688077">
                <ele>220.759888</ele>
                <time>2006-11-25T10:11:00Z</time>
            </trkpt>
            <trkpt lon="101.178846" lat="14.688249">
                <ele>223.163208</ele>
                <time>2006-11-25T10:11:19Z</time>
            </trkpt>
            <trkpt lon="101.179125" lat="14.688334">
                <ele>225.566528</ele>
                <time>2006-11-25T10:11:43Z</time>
            </trkpt>
            <trkpt lon="101.179340" lat="14.688420">
                <ele>229.411743</ele>
                <time>2006-11-25T10:12:07Z</time>
            </trkpt>
            <trkpt lon="101.179383" lat="14.688442">
                <ele>232.295776</ele>
                <time>2006-11-25T10:12:12Z</time>
            </trkpt>
            <trkpt lon="101.179554" lat="14.688635">
                <ele>233.257080</ele>
                <time>2006-11-25T10:12:35Z</time>
            </trkpt>
            <trkpt lon="101.179576" lat="14.688678">
                <ele>231.814941</ele>
                <time>2006-11-25T10:12:40Z</time>
            </trkpt>
            <trkpt lon="101.179576" lat="14.688742">
                <ele>232.295776</ele>
                <time>2006-11-25T10:12:56Z</time>
            </trkpt>
            <trkpt lon="101.179576" lat="14.688764">
                <ele>228.450439</ele>
                <time>2006-11-25T10:13:36Z</time>
            </trkpt>
            <trkpt lon="101.179576" lat="14.688742">
                <ele>228.450439</ele>
                <time>2006-11-25T10:13:39Z</time>
            </trkpt>
            <trkpt lon="101.179533" lat="14.688742">
                <ele>231.334351</ele>
                <time>2006-11-25T10:14:01Z</time>
            </trkpt>
            <trkpt lon="101.179533" lat="14.688785">
                <ele>237.582886</ele>
                <time>2006-11-25T10:16:38Z</time>
            </trkpt>
            <trkpt lon="101.179812" lat="14.688935">
                <ele>233.737671</ele>
                <time>2006-11-25T10:16:55Z</time>
            </trkpt>
            <trkpt lon="101.180263" lat="14.688978">
                <ele>230.853760</ele>
                <time>2006-11-25T10:17:14Z</time>
            </trkpt>
            <trkpt lon="101.180670" lat="14.689000">
                <ele>228.450439</ele>
                <time>2006-11-25T10:17:31Z</time>
            </trkpt>
            <trkpt lon="101.180735" lat="14.689000">
                <ele>228.931152</ele>
                <time>2006-11-25T10:17:42Z</time>
            </trkpt>
            <trkpt lon="101.180971" lat="14.689000">
                <ele>230.373047</ele>
                <time>2006-11-25T10:18:05Z</time>
            </trkpt>
            <trkpt lon="101.181099" lat="14.689064">
                <ele>230.373047</ele>
                <time>2006-11-25T10:18:21Z</time>
            </trkpt>
            <trkpt lon="101.181142" lat="14.689085">
                <ele>230.853760</ele>
                <time>2006-11-25T10:18:37Z</time>
            </trkpt>
            <trkpt lon="101.181207" lat="14.689085">
                <ele>230.853760</ele>
                <time>2006-11-25T10:18:51Z</time>
            </trkpt>
            <trkpt lon="101.181378" lat="14.688764">
                <ele>229.892334</ele>
                <time>2006-11-25T10:19:07Z</time>
            </trkpt>
            <trkpt lon="101.181743" lat="14.687991">
                <ele>229.411743</ele>
                <time>2006-11-25T10:19:27Z</time>
            </trkpt>
            <trkpt lon="101.182194" lat="14.687004">
                <ele>231.334351</ele>
                <time>2006-11-25T10:19:52Z</time>
            </trkpt>
            <trkpt lon="101.182644" lat="14.686146">
                <ele>232.776489</ele>
                <time>2006-11-25T10:20:14Z</time>
            </trkpt>
            <trkpt lon="101.183181" lat="14.685223">
                <ele>227.969727</ele>
                <time>2006-11-25T10:20:34Z</time>
            </trkpt>
            <trkpt lon="101.183503" lat="14.684730">
                <ele>224.605225</ele>
                <time>2006-11-25T10:20:47Z</time>
            </trkpt>
            <trkpt lon="101.183610" lat="14.684772">
                <ele>223.643799</ele>
                <time>2006-11-25T10:20:55Z</time>
            </trkpt>
            <trkpt lon="101.183910" lat="14.684601">
                <ele>223.163208</ele>
                <time>2006-11-25T10:21:08Z</time>
            </trkpt>
            <trkpt lon="101.184490" lat="14.684343">
                <ele>218.356567</ele>
                <time>2006-11-25T10:21:27Z</time>
            </trkpt>
            <trkpt lon="101.185005" lat="14.684129">
                <ele>218.837280</ele>
                <time>2006-11-25T10:21:50Z</time>
            </trkpt>
            <trkpt lon="101.185670" lat="14.683914">
                <ele>214.511230</ele>
                <time>2006-11-25T10:22:11Z</time>
            </trkpt>
            <trkpt lon="101.186421" lat="14.683635">
                <ele>214.030640</ele>
                <time>2006-11-25T10:22:32Z</time>
            </trkpt>
            <trkpt lon="101.186507" lat="14.683614">
                <ele>213.550049</ele>
                <time>2006-11-25T10:22:36Z</time>
            </trkpt>
            <trkpt lon="101.186571" lat="14.683764">
                <ele>212.588623</ele>
                <time>2006-11-25T10:22:46Z</time>
            </trkpt>
            <trkpt lon="101.186635" lat="14.684064">
                <ele>207.782104</ele>
                <time>2006-11-25T10:23:02Z</time>
            </trkpt>
            <trkpt lon="101.186700" lat="14.684365">
                <ele>204.898071</ele>
                <time>2006-11-25T10:23:20Z</time>
            </trkpt>
            <trkpt lon="101.186700" lat="14.684494">
                <ele>204.898071</ele>
                <time>2006-11-25T10:23:32Z</time>
            </trkpt>
            <trkpt lon="101.186678" lat="14.684644">
                <ele>209.224121</ele>
                <time>2006-11-25T10:23:54Z</time>
            </trkpt>
            <trkpt lon="101.186657" lat="14.684665">
                <ele>209.224121</ele>
                <time>2006-11-25T10:23:57Z</time>
            </trkpt>
            <trkpt lon="101.186378" lat="14.684687">
                <ele>210.185425</ele>
                <time>2006-11-25T10:24:16Z</time>
            </trkpt>
            <trkpt lon="101.186228" lat="14.684730">
                <ele>210.185425</ele>
                <time>2006-11-25T10:24:34Z</time>
            </trkpt>
            <trkpt lon="101.186142" lat="14.684751">
                <ele>211.146729</ele>
                <time>2006-11-25T10:24:46Z</time>
            </trkpt>
            <trkpt lon="101.186056" lat="14.684794">
                <ele>212.588623</ele>
                <time>2006-11-25T10:24:59Z</time>
            </trkpt>
            <trkpt lon="101.186185" lat="14.685073">
                <ele>209.704834</ele>
                <time>2006-11-25T10:25:17Z</time>
            </trkpt>
            <trkpt lon="101.186357" lat="14.685266">
                <ele>210.185425</ele>
                <time>2006-11-25T10:25:26Z</time>
            </trkpt>
            <trkpt lon="101.186378" lat="14.685416">
                <ele>207.782104</ele>
                <time>2006-11-25T10:25:40Z</time>
            </trkpt>
            <trkpt lon="101.186442" lat="14.685438">
                <ele>207.782104</ele>
                <time>2006-11-25T10:25:54Z</time>
            </trkpt>
            <trkpt lon="101.186571" lat="14.685631">
                <ele>206.820679</ele>
                <time>2006-11-25T10:26:24Z</time>
            </trkpt>
            <trkpt lon="101.186485" lat="14.685738">
                <ele>204.898071</ele>
                <time>2006-11-25T10:26:48Z</time>
            </trkpt>
            <trkpt lon="101.186442" lat="14.685738">
                <ele>205.378784</ele>
                <time>2006-11-25T10:27:02Z</time>
            </trkpt>
            <trkpt lon="101.186421" lat="14.685738">
                <ele>204.898071</ele>
                <time>2006-11-25T10:27:23Z</time>
            </trkpt>
            <trkpt lon="101.186399" lat="14.685738">
                <ele>204.417480</ele>
                <time>2006-11-25T10:27:59Z</time>
            </trkpt>
            <trkpt lon="101.186421" lat="14.685717">
                <ele>203.936890</ele>
                <time>2006-11-25T10:28:24Z</time>
            </trkpt>
            <trkpt lon="101.186442" lat="14.685738">
                <ele>221.240601</ele>
                <time>2006-11-25T10:29:15Z</time>
            </trkpt>
            <trkpt lon="101.186507" lat="14.685824">
                <ele>219.317993</ele>
                <time>2006-11-25T10:29:39Z</time>
            </trkpt>
            <trkpt lon="101.186678" lat="14.685910">
                <ele>218.356567</ele>
                <time>2006-11-25T10:30:12Z</time>
            </trkpt>
            <trkpt lon="101.186700" lat="14.685910">
                <ele>217.875977</ele>
                <time>2006-11-25T10:30:15Z</time>
            </trkpt>
            <trkpt lon="101.186850" lat="14.685953">
                <ele>212.108032</ele>
                <time>2006-11-25T10:30:31Z</time>
            </trkpt>
            <trkpt lon="101.186957" lat="14.685953">
                <ele>207.782104</ele>
                <time>2006-11-25T10:30:44Z</time>
            </trkpt>
            <trkpt lon="101.187193" lat="14.685931">
                <ele>205.859497</ele>
                <time>2006-11-25T10:31:00Z</time>
            </trkpt>
            <trkpt lon="101.187322" lat="14.685953">
                <ele>205.859497</ele>
                <time>2006-11-25T10:31:13Z</time>
            </trkpt>
            <trkpt lon="101.187451" lat="14.686060">
                <ele>207.301392</ele>
                <time>2006-11-25T10:31:30Z</time>
            </trkpt>
            <trkpt lon="101.187537" lat="14.686103">
                <ele>207.782104</ele>
                <time>2006-11-25T10:31:45Z</time>
            </trkpt>
            <trkpt lon="101.187580" lat="14.686103">
                <ele>207.782104</ele>
                <time>2006-11-25T10:31:49Z</time>
            </trkpt>
            <trkpt lon="101.187601" lat="14.686210">
                <ele>208.262817</ele>
                <time>2006-11-25T10:31:57Z</time>
            </trkpt>
            <trkpt lon="101.187623" lat="14.686489">
                <ele>209.704834</ele>
                <time>2006-11-25T10:32:15Z</time>
            </trkpt>
            <trkpt lon="101.187429" lat="14.686618">
                <ele>211.627441</ele>
                <time>2006-11-25T10:32:32Z</time>
            </trkpt>
            <trkpt lon="101.187172" lat="14.686682">
                <ele>212.108032</ele>
                <time>2006-11-25T10:32:49Z</time>
            </trkpt>
            <trkpt lon="101.186914" lat="14.686790">
                <ele>213.550049</ele>
                <time>2006-11-25T10:33:07Z</time>
            </trkpt>
            <trkpt lon="101.186743" lat="14.686854">
                <ele>213.550049</ele>
                <time>2006-11-25T10:33:24Z</time>
            </trkpt>
            <trkpt lon="101.186786" lat="14.686854">
                <ele>214.511230</ele>
                <time>2006-11-25T10:33:39Z</time>
            </trkpt>
            <trkpt lon="101.187086" lat="14.686725">
                <ele>214.511230</ele>
                <time>2006-11-25T10:33:57Z</time>
            </trkpt>
            <trkpt lon="101.187387" lat="14.686639">
                <ele>212.588623</ele>
                <time>2006-11-25T10:34:15Z</time>
            </trkpt>
            <trkpt lon="101.187408" lat="14.686639">
                <ele>211.627441</ele>
                <time>2006-11-25T10:34:28Z</time>
            </trkpt>
            <trkpt lon="101.187429" lat="14.686639">
                <ele>211.146729</ele>
                <time>2006-11-25T10:34:33Z</time>
            </trkpt>
            <trkpt lon="101.187429" lat="14.686661">
                <ele>211.627441</ele>
                <time>2006-11-25T10:34:35Z</time>
            </trkpt>
            <trkpt lon="101.187279" lat="14.686790">
                <ele>211.627441</ele>
                <time>2006-11-25T10:34:50Z</time>
            </trkpt>
            <trkpt lon="101.187129" lat="14.686961">
                <ele>214.030640</ele>
                <time>2006-11-25T10:35:07Z</time>
            </trkpt>
            <trkpt lon="101.187108" lat="14.686961">
                <ele>216.914673</ele>
                <time>2006-11-25T10:35:36Z</time>
            </trkpt>
            <trkpt lon="101.187108" lat="14.686961">
                <ele>215.472656</ele>
                <time>2006-11-25T10:36:11Z</time>
            </trkpt>
            <trkpt lon="101.187129" lat="14.687004">
                <ele>215.953247</ele>
                <time>2006-11-25T10:36:16Z</time>
            </trkpt>
            <trkpt lon="101.187193" lat="14.687197">
                <ele>214.991943</ele>
                <time>2006-11-25T10:36:36Z</time>
            </trkpt>
            <trkpt lon="101.187129" lat="14.687262">
                <ele>215.472656</ele>
                <time>2006-11-25T10:36:51Z</time>
            </trkpt>
            <trkpt lon="101.187129" lat="14.687262">
                <ele>213.550049</ele>
                <time>2006-11-25T10:36:58Z</time>
            </trkpt>
            <trkpt lon="101.187322" lat="14.687154">
                <ele>214.030640</ele>
                <time>2006-11-25T10:37:18Z</time>
            </trkpt>
            <trkpt lon="101.187472" lat="14.687197">
                <ele>214.511230</ele>
                <time>2006-11-25T10:37:37Z</time>
            </trkpt>
            <trkpt lon="101.187537" lat="14.687219">
                <ele>213.069336</ele>
                <time>2006-11-25T10:37:51Z</time>
            </trkpt>
            <trkpt lon="101.187923" lat="14.687133">
                <ele>209.704834</ele>
                <time>2006-11-25T10:38:08Z</time>
            </trkpt>
            <trkpt lon="101.188524" lat="14.687068">
                <ele>205.859497</ele>
                <time>2006-11-25T10:38:27Z</time>
            </trkpt>
            <trkpt lon="101.188953" lat="14.687068">
                <ele>202.975464</ele>
                <time>2006-11-25T10:38:43Z</time>
            </trkpt>
            <trkpt lon="101.189060" lat="14.687068">
                <ele>202.494873</ele>
                <time>2006-11-25T10:38:47Z</time>
            </trkpt>
            <trkpt lon="101.189082" lat="14.687068">
                <ele>203.456177</ele>
                <time>2006-11-25T10:39:05Z</time>
            </trkpt>
            <trkpt lon="101.189082" lat="14.687068">
                <ele>202.494873</ele>
                <time>2006-11-25T10:39:42Z</time>
            </trkpt>
            <trkpt lon="101.189103" lat="14.687090">
                <ele>202.975464</ele>
                <time>2006-11-25T10:39:46Z</time>
            </trkpt>
            <trkpt lon="101.189210" lat="14.687390">
                <ele>203.936890</ele>
                <time>2006-11-25T10:40:01Z</time>
            </trkpt>
            <trkpt lon="101.189361" lat="14.687777">
                <ele>204.898071</ele>
                <time>2006-11-25T10:40:21Z</time>
            </trkpt>
            <trkpt lon="101.189597" lat="14.688077">
                <ele>205.378784</ele>
                <time>2006-11-25T10:40:38Z</time>
            </trkpt>
            <trkpt lon="101.189897" lat="14.688270">
                <ele>203.456177</ele>
                <time>2006-11-25T10:40:50Z</time>
            </trkpt>
            <trkpt lon="101.189940" lat="14.688292">
                <ele>202.975464</ele>
                <time>2006-11-25T10:40:52Z</time>
            </trkpt>
            <trkpt lon="101.190498" lat="14.688206">
                <ele>202.975464</ele>
                <time>2006-11-25T10:41:07Z</time>
            </trkpt>
            <trkpt lon="101.190777" lat="14.688120">
                <ele>202.975464</ele>
                <time>2006-11-25T10:41:13Z</time>
            </trkpt>
            <trkpt lon="101.191528" lat="14.687841">
                <ele>202.494873</ele>
                <time>2006-11-25T10:41:27Z</time>
            </trkpt>
            <trkpt lon="101.191592" lat="14.687819">
                <ele>202.975464</ele>
                <time>2006-11-25T10:41:28Z</time>
            </trkpt>
            <trkpt lon="101.191871" lat="14.687862">
                <ele>202.494873</ele>
                <time>2006-11-25T10:41:33Z</time>
            </trkpt>
            <trkpt lon="101.192214" lat="14.688056">
                <ele>201.533569</ele>
                <time>2006-11-25T10:41:44Z</time>
            </trkpt>
            <trkpt lon="101.192451" lat="14.687905">
                <ele>202.494873</ele>
                <time>2006-11-25T10:41:52Z</time>
            </trkpt>
            <trkpt lon="101.192687" lat="14.687734">
                <ele>202.014282</ele>
                <time>2006-11-25T10:41:58Z</time>
            </trkpt>
            <trkpt lon="101.193609" lat="14.687541">
                <ele>199.130127</ele>
                <time>2006-11-25T10:42:17Z</time>
            </trkpt>
            <trkpt lon="101.194167" lat="14.687068">
                <ele>198.649536</ele>
                <time>2006-11-25T10:42:37Z</time>
            </trkpt>
            <trkpt lon="101.194725" lat="14.686596">
                <ele>195.284912</ele>
                <time>2006-11-25T10:42:55Z</time>
            </trkpt>
            <trkpt lon="101.194940" lat="14.686489">
                <ele>193.843018</ele>
                <time>2006-11-25T10:43:00Z</time>
            </trkpt>
            <trkpt lon="101.195390" lat="14.686360">
                <ele>193.843018</ele>
                <time>2006-11-25T10:43:09Z</time>
            </trkpt>
            <trkpt lon="101.196098" lat="14.686189">
                <ele>194.323730</ele>
                <time>2006-11-25T10:43:24Z</time>
            </trkpt>
            <trkpt lon="101.196592" lat="14.686081">
                <ele>192.881714</ele>
                <time>2006-11-25T10:43:35Z</time>
            </trkpt>
            <trkpt lon="101.196892" lat="14.685931">
                <ele>192.881714</ele>
                <time>2006-11-25T10:43:44Z</time>
            </trkpt>
            <trkpt lon="101.196957" lat="14.685609">
                <ele>193.362305</ele>
                <time>2006-11-25T10:43:54Z</time>
            </trkpt>
            <trkpt lon="101.197042" lat="14.685652">
                <ele>197.207520</ele>
                <time>2006-11-25T10:44:07Z</time>
            </trkpt>
            <trkpt lon="101.197042" lat="14.685652">
                <ele>197.207520</ele>
                <time>2006-11-25T10:44:10Z</time>
            </trkpt>
            <trkpt lon="101.196957" lat="14.685631">
                <ele>196.246338</ele>
                <time>2006-11-25T10:44:18Z</time>
            </trkpt>
            <trkpt lon="101.196914" lat="14.685802">
                <ele>194.804321</ele>
                <time>2006-11-25T10:44:23Z</time>
            </trkpt>
            <trkpt lon="101.196764" lat="14.686446">
                <ele>191.439575</ele>
                <time>2006-11-25T10:44:41Z</time>
            </trkpt>
            <trkpt lon="101.198716" lat="14.688785">
                <ele>213.069336</ele>
                <time>2006-11-25T10:46:25Z</time>
            </trkpt>
            <trkpt lon="101.198823" lat="14.688914">
                <ele>189.516968</ele>
                <time>2006-11-25T10:46:28Z</time>
            </trkpt>
            <trkpt lon="101.198781" lat="14.689279">
                <ele>186.633179</ele>
                <time>2006-11-25T10:46:35Z</time>
            </trkpt>
            <trkpt lon="101.198115" lat="14.690373">
                <ele>186.152466</ele>
                <time>2006-11-25T10:46:56Z</time>
            </trkpt>
            <trkpt lon="101.198072" lat="14.690437">
                <ele>186.152466</ele>
                <time>2006-11-25T10:46:57Z</time>
            </trkpt>
            <trkpt lon="101.191099" lat="14.706423">
                <ele>194.323730</ele>
                <time>2006-11-26T03:36:14Z</time>
            </trkpt>
            <trkpt lon="101.190348" lat="14.705629">
                <ele>214.991943</ele>
                <time>2006-11-25T06:08:06Z</time>
            </trkpt>
            <trkpt lon="101.189489" lat="14.706144">
                <ele>214.991943</ele>
                <time>2006-11-25T06:08:23Z</time>
            </trkpt>
            <trkpt lon="101.188760" lat="14.706767">
                <ele>206.820679</ele>
                <time>2006-11-25T06:08:38Z</time>
            </trkpt>
            <trkpt lon="101.187773" lat="14.707732">
                <ele>192.401123</ele>
                <time>2006-11-25T06:09:00Z</time>
            </trkpt>
            <trkpt lon="101.187000" lat="14.708440">
                <ele>185.191162</ele>
                <time>2006-11-25T06:09:18Z</time>
            </trkpt>
            <trkpt lon="101.186957" lat="14.708462">
                <ele>185.191162</ele>
                <time>2006-11-25T06:09:19Z</time>
            </trkpt>
            <trkpt lon="101.186936" lat="14.708676">
                <ele>182.307129</ele>
                <time>2006-11-25T06:09:24Z</time>
            </trkpt>
            <trkpt lon="101.187129" lat="14.709020">
                <ele>178.942627</ele>
                <time>2006-11-25T06:09:30Z</time>
            </trkpt>
            <trkpt lon="101.187172" lat="14.709277">
                <ele>177.981201</ele>
                <time>2006-11-25T06:09:34Z</time>
            </trkpt>
            <trkpt lon="101.187365" lat="14.710221">
                <ele>175.577881</ele>
                <time>2006-11-25T06:09:47Z</time>
            </trkpt>
            <trkpt lon="101.187365" lat="14.710350">
                <ele>175.577881</ele>
                <time>2006-11-25T06:09:49Z</time>
            </trkpt>
            <trkpt lon="101.187751" lat="14.710608">
                <ele>174.616577</ele>
                <time>2006-11-25T06:09:59Z</time>
            </trkpt>
            <trkpt lon="101.188545" lat="14.710886">
                <ele>175.577881</ele>
                <time>2006-11-25T06:10:20Z</time>
            </trkpt>
            <trkpt lon="101.188610" lat="14.710908">
                <ele>175.577881</ele>
                <time>2006-11-25T06:10:22Z</time>
            </trkpt>
            <trkpt lon="101.188695" lat="14.711015">
                <ele>175.097290</ele>
                <time>2006-11-25T06:10:26Z</time>
            </trkpt>
            <trkpt lon="101.189146" lat="14.711852">
                <ele>174.135864</ele>
                <time>2006-11-25T06:10:44Z</time>
            </trkpt>
            <trkpt lon="101.189511" lat="14.712517">
                <ele>173.655273</ele>
                <time>2006-11-25T06:11:01Z</time>
            </trkpt>
            <trkpt lon="101.189897" lat="14.713290">
                <ele>173.655273</ele>
                <time>2006-11-25T06:11:20Z</time>
            </trkpt>
            <trkpt lon="101.190133" lat="14.713783">
                <ele>174.616577</ele>
                <time>2006-11-25T06:11:31Z</time>
            </trkpt>
            <trkpt lon="101.190004" lat="14.714234">
                <ele>175.577881</ele>
                <time>2006-11-25T06:11:41Z</time>
            </trkpt>
            <trkpt lon="101.189897" lat="14.714470">
                <ele>175.577881</ele>
                <time>2006-11-25T06:11:46Z</time>
            </trkpt>
            <trkpt lon="101.189940" lat="14.714770">
                <ele>175.577881</ele>
                <time>2006-11-25T06:11:53Z</time>
            </trkpt>
            <trkpt lon="101.189640" lat="14.715350">
                <ele>175.097290</ele>
                <time>2006-11-25T06:12:07Z</time>
            </trkpt>
            <trkpt lon="101.189446" lat="14.715886">
                <ele>176.539307</ele>
                <time>2006-11-25T06:12:18Z</time>
            </trkpt>
            <trkpt lon="101.189361" lat="14.715993">
                <ele>175.577881</ele>
                <time>2006-11-25T06:12:21Z</time>
            </trkpt>
            <trkpt lon="101.189253" lat="14.716122">
                <ele>174.616577</ele>
                <time>2006-11-25T06:12:25Z</time>
            </trkpt>
            <trkpt lon="101.189275" lat="14.716551">
                <ele>175.097290</ele>
                <time>2006-11-25T06:12:35Z</time>
            </trkpt>
            <trkpt lon="101.189275" lat="14.716702">
                <ele>175.097290</ele>
                <time>2006-11-25T06:12:40Z</time>
            </trkpt>
            <trkpt lon="101.189318" lat="14.716637">
                <ele>175.097290</ele>
                <time>2006-11-25T06:12:46Z</time>
            </trkpt>
            <trkpt lon="101.189232" lat="14.716272">
                <ele>174.616577</ele>
                <time>2006-11-25T06:13:01Z</time>
            </trkpt>
            <trkpt lon="101.189232" lat="14.716380">
                <ele>174.616577</ele>
                <time>2006-11-25T06:13:11Z</time>
            </trkpt>
            <trkpt lon="101.189210" lat="14.716401">
                <ele>174.616577</ele>
                <time>2006-11-25T06:13:27Z</time>
            </trkpt>
            <trkpt lon="101.189253" lat="14.716444">
                <ele>178.942627</ele>
                <time>2006-11-25T06:13:32Z</time>
            </trkpt>
            <trkpt lon="101.189296" lat="14.716637">
                <ele>176.539307</ele>
                <time>2006-11-25T06:13:43Z</time>
            </trkpt>
            <trkpt lon="101.189361" lat="14.716873">
                <ele>174.616577</ele>
                <time>2006-11-25T06:13:54Z</time>
            </trkpt>
            <trkpt lon="101.189361" lat="14.716916">
                <ele>174.135864</ele>
                <time>2006-11-25T06:13:56Z</time>
            </trkpt>
            <trkpt lon="101.189318" lat="14.716959">
                <ele>174.135864</ele>
                <time>2006-11-25T06:14:02Z</time>
            </trkpt>
            <trkpt lon="101.189275" lat="14.716959">
                <ele>175.577881</ele>
                <time>2006-11-25T06:14:25Z</time>
            </trkpt>
            <trkpt lon="101.189232" lat="14.717045">
                <ele>174.135864</ele>
                <time>2006-11-25T06:14:46Z</time>
            </trkpt>
            <trkpt lon="101.189210" lat="14.717066">
                <ele>173.174683</ele>
                <time>2006-11-25T06:15:04Z</time>
            </trkpt>
            <trkpt lon="101.189189" lat="14.717088">
                <ele>176.539307</ele>
                <time>2006-11-25T06:15:25Z</time>
            </trkpt>
            <trkpt lon="101.189146" lat="14.717088">
                <ele>175.097290</ele>
                <time>2006-11-25T06:15:44Z</time>
            </trkpt>
            <trkpt lon="101.189103" lat="14.717174">
                <ele>176.539307</ele>
                <time>2006-11-25T06:16:03Z</time>
            </trkpt>
            <trkpt lon="101.189125" lat="14.717174">
                <ele>176.539307</ele>
                <time>2006-11-25T06:16:04Z</time>
            </trkpt>
            <trkpt lon="101.189361" lat="14.717388">
                <ele>177.020020</ele>
                <time>2006-11-25T06:16:20Z</time>
            </trkpt>
            <trkpt lon="101.190219" lat="14.717388">
                <ele>177.500610</ele>
                <time>2006-11-25T06:16:42Z</time>
            </trkpt>
            <trkpt lon="101.190734" lat="14.717302">
                <ele>177.020020</ele>
                <time>2006-11-25T06:16:58Z</time>
            </trkpt>
            <trkpt lon="101.190519" lat="14.717753">
                <ele>176.539307</ele>
                <time>2006-11-25T06:17:09Z</time>
            </trkpt>
            <trkpt lon="101.190283" lat="14.718440">
                <ele>175.577881</ele>
                <time>2006-11-25T06:17:26Z</time>
            </trkpt>
            <trkpt lon="101.189983" lat="14.719019">
                <ele>175.577881</ele>
                <time>2006-11-25T06:17:40Z</time>
            </trkpt>
            <trkpt lon="101.189811" lat="14.719255">
                <ele>174.135864</ele>
                <time>2006-11-25T06:17:45Z</time>
            </trkpt>
            <trkpt lon="101.189253" lat="14.719684">
                <ele>175.577881</ele>
                <time>2006-11-25T06:17:59Z</time>
            </trkpt>
            <trkpt lon="101.188695" lat="14.720221">
                <ele>177.500610</ele>
                <time>2006-11-25T06:18:22Z</time>
            </trkpt>
            <trkpt lon="101.188524" lat="14.720392">
                <ele>177.020020</ele>
                <time>2006-11-25T06:18:28Z</time>
            </trkpt>
            <trkpt lon="101.188331" lat="14.720950">
                <ele>176.058594</ele>
                <time>2006-11-25T06:18:44Z</time>
            </trkpt>
            <trkpt lon="101.188352" lat="14.721422">
                <ele>177.020020</ele>
                <time>2006-11-25T06:19:00Z</time>
            </trkpt>
            <trkpt lon="101.188567" lat="14.722238">
                <ele>176.058594</ele>
                <time>2006-11-25T06:19:16Z</time>
            </trkpt>
            <trkpt lon="101.188717" lat="14.722731">
                <ele>175.097290</ele>
                <time>2006-11-25T06:19:26Z</time>
            </trkpt>
            <trkpt lon="101.188996" lat="14.722967">
                <ele>173.655273</ele>
                <time>2006-11-25T06:19:34Z</time>
            </trkpt>
            <trkpt lon="101.189382" lat="14.723139">
                <ele>174.135864</ele>
                <time>2006-11-25T06:19:42Z</time>
            </trkpt>
            <trkpt lon="101.190219" lat="14.723353">
                <ele>173.174683</ele>
                <time>2006-11-25T06:20:00Z</time>
            </trkpt>
            <trkpt lon="101.191227" lat="14.723418">
                <ele>171.252075</ele>
                <time>2006-11-25T06:20:24Z</time>
            </trkpt>
            <trkpt lon="101.191871" lat="14.723439">
                <ele>170.290649</ele>
                <time>2006-11-25T06:20:39Z</time>
            </trkpt>
            <trkpt lon="101.191914" lat="14.723439">
                <ele>170.771362</ele>
                <time>2006-11-25T06:20:41Z</time>
            </trkpt>
            <trkpt lon="101.192214" lat="14.723310">
                <ele>169.810059</ele>
                <time>2006-11-25T06:20:53Z</time>
            </trkpt>
            <trkpt lon="101.192622" lat="14.722710">
                <ele>169.329468</ele>
                <time>2006-11-25T06:21:14Z</time>
            </trkpt>
            <trkpt lon="101.192901" lat="14.722302">
                <ele>169.329468</ele>
                <time>2006-11-25T06:21:29Z</time>
            </trkpt>
            <trkpt lon="101.193180" lat="14.721916">
                <ele>167.406738</ele>
                <time>2006-11-25T06:21:49Z</time>
            </trkpt>
            <trkpt lon="101.193266" lat="14.721851">
                <ele>167.887329</ele>
                <time>2006-11-25T06:22:08Z</time>
            </trkpt>
            <trkpt lon="101.193309" lat="14.721937">
                <ele>174.616577</ele>
                <time>2006-11-25T06:23:15Z</time>
            </trkpt>
            <trkpt lon="101.193523" lat="14.721916">
                <ele>171.732666</ele>
                <time>2006-11-25T06:26:08Z</time>
            </trkpt>
            <trkpt lon="101.193588" lat="14.721959">
                <ele>173.655273</ele>
                <time>2006-11-25T06:26:25Z</time>
            </trkpt>
            <trkpt lon="101.193609" lat="14.722002">
                <ele>175.577881</ele>
                <time>2006-11-25T06:26:40Z</time>
            </trkpt>
            <trkpt lon="101.193717" lat="14.722023">
                <ele>176.058594</ele>
                <time>2006-11-25T06:26:59Z</time>
            </trkpt>
            <trkpt lon="101.193824" lat="14.722109">
                <ele>177.500610</ele>
                <time>2006-11-25T06:27:19Z</time>
            </trkpt>
            <trkpt lon="101.193995" lat="14.722130">
                <ele>177.981201</ele>
                <time>2006-11-25T06:27:37Z</time>
            </trkpt>
            <trkpt lon="101.194124" lat="14.722216">
                <ele>178.942627</ele>
                <time>2006-11-25T06:27:55Z</time>
            </trkpt>
            <trkpt lon="101.194232" lat="14.722302">
                <ele>180.865234</ele>
                <time>2006-11-25T06:28:18Z</time>
            </trkpt>
            <trkpt lon="101.194296" lat="14.722302">
                <ele>185.671753</ele>
                <time>2006-11-25T06:28:51Z</time>
            </trkpt>
            <trkpt lon="101.194746" lat="14.722388">
                <ele>183.268433</ele>
                <time>2006-11-25T06:29:13Z</time>
            </trkpt>
            <trkpt lon="101.195111" lat="14.722431">
                <ele>182.787842</ele>
                <time>2006-11-25T06:29:45Z</time>
            </trkpt>
            <trkpt lon="101.195347" lat="14.722452">
                <ele>184.229858</ele>
                <time>2006-11-25T06:30:14Z</time>
            </trkpt>
            <trkpt lon="101.195605" lat="14.722452">
                <ele>185.191162</ele>
                <time>2006-11-25T06:30:43Z</time>
            </trkpt>
            <trkpt lon="101.195755" lat="14.722431">
                <ele>185.671753</ele>
                <time>2006-11-25T06:30:58Z</time>
            </trkpt>
            <trkpt lon="101.195948" lat="14.722388">
                <ele>187.594360</ele>
                <time>2006-11-25T06:31:16Z</time>
            </trkpt>
            <trkpt lon="101.196227" lat="14.722323">
                <ele>187.113770</ele>
                <time>2006-11-25T06:31:36Z</time>
            </trkpt>
            <trkpt lon="101.196506" lat="14.722195">
                <ele>183.268433</ele>
                <time>2006-11-25T06:31:57Z</time>
            </trkpt>
            <trkpt lon="101.196656" lat="14.722152">
                <ele>183.749023</ele>
                <time>2006-11-25T06:32:14Z</time>
            </trkpt>
            <trkpt lon="101.196849" lat="14.722087">
                <ele>188.075073</ele>
                <time>2006-11-25T06:32:36Z</time>
            </trkpt>
            <trkpt lon="101.197107" lat="14.722066">
                <ele>193.362305</ele>
                <time>2006-11-25T06:32:57Z</time>
            </trkpt>
            <trkpt lon="101.197214" lat="14.722023">
                <ele>196.246338</ele>
                <time>2006-11-25T06:33:12Z</time>
            </trkpt>
            <trkpt lon="101.197300" lat="14.721980">
                <ele>196.246338</ele>
                <time>2006-11-25T06:33:20Z</time>
            </trkpt>
            <trkpt lon="101.197407" lat="14.721894">
                <ele>193.843018</ele>
                <time>2006-11-25T06:33:40Z</time>
            </trkpt>
            <trkpt lon="101.197472" lat="14.721894">
                <ele>195.284912</ele>
                <time>2006-11-25T06:34:09Z</time>
            </trkpt>
            <trkpt lon="101.197515" lat="14.721873">
                <ele>198.649536</ele>
                <time>2006-11-25T06:35:30Z</time>
            </trkpt>
            <trkpt lon="101.197515" lat="14.721894">
                <ele>197.207520</ele>
                <time>2006-11-25T06:36:43Z</time>
            </trkpt>
            <trkpt lon="101.197600" lat="14.721916">
                <ele>197.207520</ele>
                <time>2006-11-25T06:37:11Z</time>
            </trkpt>
            <trkpt lon="101.197643" lat="14.721980">
                <ele>197.688232</ele>
                <time>2006-11-25T06:37:30Z</time>
            </trkpt>
            <trkpt lon="101.197686" lat="14.722002">
                <ele>196.726929</ele>
                <time>2006-11-25T06:37:38Z</time>
            </trkpt>
            <trkpt lon="101.197815" lat="14.722044">
                <ele>195.284912</ele>
                <time>2006-11-25T06:37:56Z</time>
            </trkpt>
            <trkpt lon="101.197901" lat="14.722066">
                <ele>191.439575</ele>
                <time>2006-11-25T06:38:12Z</time>
            </trkpt>
            <trkpt lon="101.197965" lat="14.722087">
                <ele>196.246338</ele>
                <time>2006-11-25T06:38:31Z</time>
            </trkpt>
            <trkpt lon="101.198051" lat="14.722130">
                <ele>191.439575</ele>
                <time>2006-11-25T06:39:18Z</time>
            </trkpt>
            <trkpt lon="101.198223" lat="14.722195">
                <ele>188.075073</ele>
                <time>2006-11-25T06:39:41Z</time>
            </trkpt>
            <trkpt lon="101.198287" lat="14.722238">
                <ele>189.036377</ele>
                <time>2006-11-25T06:40:03Z</time>
            </trkpt>
            <trkpt lon="101.198351" lat="14.722302">
                <ele>186.633179</ele>
                <time>2006-11-25T06:40:23Z</time>
            </trkpt>
            <trkpt lon="101.198394" lat="14.722345">
                <ele>185.671753</ele>
                <time>2006-11-25T06:40:32Z</time>
            </trkpt>
            <trkpt lon="101.198480" lat="14.722688">
                <ele>185.671753</ele>
                <time>2006-11-25T06:40:45Z</time>
            </trkpt>
            <trkpt lon="101.198566" lat="14.723289">
                <ele>185.191162</ele>
                <time>2006-11-25T06:41:00Z</time>
            </trkpt>
            <trkpt lon="101.198566" lat="14.723933">
                <ele>182.787842</ele>
                <time>2006-11-25T06:41:18Z</time>
            </trkpt>
            <trkpt lon="101.198545" lat="14.724147">
                <ele>183.268433</ele>
                <time>2006-11-25T06:41:28Z</time>
            </trkpt>
            <trkpt lon="101.198502" lat="14.724169">
                <ele>183.268433</ele>
                <time>2006-11-25T06:41:30Z</time>
            </trkpt>
            <trkpt lon="101.198459" lat="14.724255">
                <ele>181.826416</ele>
                <time>2006-11-25T06:41:35Z</time>
            </trkpt>
            <trkpt lon="101.198158" lat="14.724383">
                <ele>177.981201</ele>
                <time>2006-11-25T06:41:47Z</time>
            </trkpt>
            <trkpt lon="101.198137" lat="14.724448">
                <ele>178.461914</ele>
                <time>2006-11-25T06:41:51Z</time>
            </trkpt>
            <trkpt lon="101.198308" lat="14.724641">
                <ele>174.135864</ele>
                <time>2006-11-25T06:42:05Z</time>
            </trkpt>
            <trkpt lon="101.198609" lat="14.724963">
                <ele>174.616577</ele>
                <time>2006-11-25T06:42:22Z</time>
            </trkpt>
            <trkpt lon="101.198866" lat="14.725199">
                <ele>177.500610</ele>
                <time>2006-11-25T06:42:38Z</time>
            </trkpt>
            <trkpt lon="101.199145" lat="14.725370">
                <ele>178.461914</ele>
                <time>2006-11-25T06:42:55Z</time>
            </trkpt>
            <trkpt lon="101.199338" lat="14.725435">
                <ele>178.942627</ele>
                <time>2006-11-25T06:43:04Z</time>
            </trkpt>
            <trkpt lon="101.199317" lat="14.725521">
                <ele>179.423218</ele>
                <time>2006-11-25T06:43:09Z</time>
            </trkpt>
            <trkpt lon="101.199253" lat="14.725778">
                <ele>180.865234</ele>
                <time>2006-11-25T06:43:17Z</time>
            </trkpt>
            <trkpt lon="101.199360" lat="14.725907">
                <ele>180.865234</ele>
                <time>2006-11-25T06:43:21Z</time>
            </trkpt>
            <trkpt lon="101.199532" lat="14.726100">
                <ele>180.865234</ele>
                <time>2006-11-25T06:43:26Z</time>
            </trkpt>
            <trkpt lon="101.199617" lat="14.726593">
                <ele>181.345825</ele>
                <time>2006-11-25T06:43:36Z</time>
            </trkpt>
            <trkpt lon="101.199596" lat="14.726701">
                <ele>181.826416</ele>
                <time>2006-11-25T06:43:38Z</time>
            </trkpt>
            <trkpt lon="101.199532" lat="14.726808">
                <ele>181.345825</ele>
                <time>2006-11-25T06:43:40Z</time>
            </trkpt>
            <trkpt lon="101.199231" lat="14.727087">
                <ele>180.384521</ele>
                <time>2006-11-25T06:43:47Z</time>
            </trkpt>
            <trkpt lon="101.198781" lat="14.727173">
                <ele>178.461914</ele>
                <time>2006-11-25T06:43:53Z</time>
            </trkpt>
            <trkpt lon="101.197128" lat="14.727066">
                <ele>168.368042</ele>
                <time>2006-11-25T06:44:08Z</time>
            </trkpt>
            <trkpt lon="101.195261" lat="14.727044">
                <ele>160.196899</ele>
                <time>2006-11-25T06:44:23Z</time>
            </trkpt>
            <trkpt lon="101.193416" lat="14.726937">
                <ele>159.716187</ele>
                <time>2006-11-25T06:44:41Z</time>
            </trkpt>
            <trkpt lon="101.192751" lat="14.726851">
                <ele>161.158203</ele>
                <time>2006-11-25T06:44:52Z</time>
            </trkpt>
            <trkpt lon="101.192107" lat="14.726787">
                <ele>158.754761</ele>
                <time>2006-11-25T06:44:59Z</time>
            </trkpt>
            <trkpt lon="101.191957" lat="14.726658">
                <ele>158.274170</ele>
                <time>2006-11-25T06:45:04Z</time>
            </trkpt>
            <trkpt lon="101.191978" lat="14.726615">
                <ele>158.274170</ele>
                <time>2006-11-25T06:45:06Z</time>
            </trkpt>
            <trkpt lon="101.191978" lat="14.726572">
                <ele>158.754761</ele>
                <time>2006-11-25T06:45:08Z</time>
            </trkpt>
            <trkpt lon="101.191957" lat="14.726486">
                <ele>159.235474</ele>
                <time>2006-11-25T06:45:14Z</time>
            </trkpt>
            <trkpt lon="101.191850" lat="14.726293">
                <ele>161.638916</ele>
                <time>2006-11-25T06:45:26Z</time>
            </trkpt>
            <trkpt lon="101.191678" lat="14.726229">
                <ele>160.677490</ele>
                <time>2006-11-25T06:45:32Z</time>
            </trkpt>
            <trkpt lon="101.191485" lat="14.725971">
                <ele>160.677490</ele>
                <time>2006-11-25T06:45:45Z</time>
            </trkpt>
            <trkpt lon="101.191356" lat="14.725542">
                <ele>157.312866</ele>
                <time>2006-11-25T06:46:01Z</time>
            </trkpt>
            <trkpt lon="101.191313" lat="14.725049">
                <ele>159.716187</ele>
                <time>2006-11-25T06:46:19Z</time>
            </trkpt>
            <trkpt lon="101.191356" lat="14.724898">
                <ele>159.716187</ele>
                <time>2006-11-25T06:46:27Z</time>
            </trkpt>
            <trkpt lon="101.191421" lat="14.724855">
                <ele>161.638916</ele>
                <time>2006-11-25T06:46:38Z</time>
            </trkpt>
            <trkpt lon="101.191378" lat="14.724791">
                <ele>165.964722</ele>
                <time>2006-11-25T06:47:04Z</time>
            </trkpt>
            <trkpt lon="101.191356" lat="14.724748">
                <ele>174.135864</ele>
                <time>2006-11-25T06:47:22Z</time>
            </trkpt>
            <trkpt lon="101.191313" lat="14.724684">
                <ele>178.942627</ele>
                <time>2006-11-25T06:47:49Z</time>
            </trkpt>
            <trkpt lon="101.191270" lat="14.724576">
                <ele>174.135864</ele>
                <time>2006-11-25T06:48:20Z</time>
            </trkpt>
            <trkpt lon="101.191249" lat="14.724576">
                <ele>170.290649</ele>
                <time>2006-11-25T06:48:54Z</time>
            </trkpt>
            <trkpt lon="101.191163" lat="14.724448">
                <ele>167.887329</ele>
                <time>2006-11-25T06:49:18Z</time>
            </trkpt>
            <trkpt lon="101.191034" lat="14.724426">
                <ele>165.003418</ele>
                <time>2006-11-25T06:49:26Z</time>
            </trkpt>
            <trkpt lon="101.190670" lat="14.724512">
                <ele>165.484131</ele>
                <time>2006-11-25T06:49:38Z</time>
            </trkpt>
            <trkpt lon="101.190283" lat="14.724383">
                <ele>166.445312</ele>
                <time>2006-11-25T06:49:52Z</time>
            </trkpt>
            <trkpt lon="101.190133" lat="14.724641">
                <ele>166.926025</ele>
                <time>2006-11-25T06:50:06Z</time>
            </trkpt>
            <trkpt lon="101.189854" lat="14.724598">
                <ele>165.964722</ele>
                <time>2006-11-25T06:50:19Z</time>
            </trkpt>
            <trkpt lon="101.189811" lat="14.724598">
                <ele>166.445312</ele>
                <time>2006-11-25T06:50:21Z</time>
            </trkpt>
            <trkpt lon="101.189768" lat="14.724684">
                <ele>166.445312</ele>
                <time>2006-11-25T06:50:25Z</time>
            </trkpt>
            <trkpt lon="101.189725" lat="14.724748">
                <ele>165.484131</ele>
                <time>2006-11-25T06:50:29Z</time>
            </trkpt>
            <trkpt lon="101.189468" lat="14.724941">
                <ele>166.445312</ele>
                <time>2006-11-25T06:50:47Z</time>
            </trkpt>
            <trkpt lon="101.189210" lat="14.725199">
                <ele>165.964722</ele>
                <time>2006-11-25T06:51:05Z</time>
            </trkpt>
            <trkpt lon="101.189082" lat="14.725435">
                <ele>165.484131</ele>
                <time>2006-11-25T06:51:21Z</time>
            </trkpt>
            <trkpt lon="101.188889" lat="14.725585">
                <ele>165.003418</ele>
                <time>2006-11-25T06:51:36Z</time>
            </trkpt>
            <trkpt lon="101.188889" lat="14.725649">
                <ele>165.964722</ele>
                <time>2006-11-25T06:51:39Z</time>
            </trkpt>
            <trkpt lon="101.188910" lat="14.725692">
                <ele>167.406738</ele>
                <time>2006-11-25T06:51:42Z</time>
            </trkpt>
            <trkpt lon="101.189082" lat="14.725800">
                <ele>166.445312</ele>
                <time>2006-11-25T06:51:52Z</time>
            </trkpt>
            <trkpt lon="101.188931" lat="14.725993">
                <ele>169.329468</ele>
                <time>2006-11-25T06:52:04Z</time>
            </trkpt>
            <trkpt lon="101.188889" lat="14.725993">
                <ele>169.329468</ele>
                <time>2006-11-25T06:52:06Z</time>
            </trkpt>
            <trkpt lon="101.188116" lat="14.725928">
                <ele>168.368042</ele>
                <time>2006-11-25T06:52:28Z</time>
            </trkpt>
            <trkpt lon="101.187150" lat="14.725971">
                <ele>170.290649</ele>
                <time>2006-11-25T06:52:53Z</time>
            </trkpt>
            <trkpt lon="101.186399" lat="14.725800">
                <ele>172.213257</ele>
                <time>2006-11-25T06:53:06Z</time>
            </trkpt>
            <trkpt lon="101.186185" lat="14.725606">
                <ele>172.213257</ele>
                <time>2006-11-25T06:53:10Z</time>
            </trkpt>
            <trkpt lon="101.186121" lat="14.725478">
                <ele>171.732666</ele>
                <time>2006-11-25T06:53:12Z</time>
            </trkpt>
            <trkpt lon="101.185992" lat="14.724340">
                <ele>171.252075</ele>
                <time>2006-11-25T06:53:29Z</time>
            </trkpt>
            <trkpt lon="101.185970" lat="14.724233">
                <ele>170.771362</ele>
                <time>2006-11-25T06:53:31Z</time>
            </trkpt>
            <trkpt lon="101.185820" lat="14.724019">
                <ele>170.290649</ele>
                <time>2006-11-25T06:53:36Z</time>
            </trkpt>
            <trkpt lon="101.185606" lat="14.723954">
                <ele>171.732666</ele>
                <time>2006-11-25T06:53:41Z</time>
            </trkpt>
            <trkpt lon="101.185348" lat="14.723954">
                <ele>170.290649</ele>
                <time>2006-11-25T06:53:46Z</time>
            </trkpt>
            <trkpt lon="101.185133" lat="14.723911">
                <ele>168.848755</ele>
                <time>2006-11-25T06:53:50Z</time>
            </trkpt>
            <trkpt lon="101.184361" lat="14.723804">
                <ele>170.290649</ele>
                <time>2006-11-25T06:54:09Z</time>
            </trkpt>
            <trkpt lon="101.183953" lat="14.723611">
                <ele>172.693970</ele>
                <time>2006-11-25T06:54:23Z</time>
            </trkpt>
            <trkpt lon="101.183739" lat="14.723117">
                <ele>174.616577</ele>
                <time>2006-11-25T06:54:40Z</time>
            </trkpt>
            <trkpt lon="101.183653" lat="14.722667">
                <ele>174.616577</ele>
                <time>2006-11-25T06:54:54Z</time>
            </trkpt>
            <trkpt lon="101.183546" lat="14.722452">
                <ele>175.577881</ele>
                <time>2006-11-25T06:54:59Z</time>
            </trkpt>
            <trkpt lon="101.183524" lat="14.722259">
                <ele>175.097290</ele>
                <time>2006-11-25T06:55:03Z</time>
            </trkpt>
            <trkpt lon="101.183310" lat="14.721680">
                <ele>177.020020</ele>
                <time>2006-11-25T06:55:16Z</time>
            </trkpt>
            <trkpt lon="101.183224" lat="14.721658">
                <ele>176.539307</ele>
                <time>2006-11-25T06:55:19Z</time>
            </trkpt>
            <trkpt lon="101.182988" lat="14.721208">
                <ele>178.942627</ele>
                <time>2006-11-25T06:55:31Z</time>
            </trkpt>
            <trkpt lon="101.182623" lat="14.720242">
                <ele>180.384521</ele>
                <time>2006-11-25T06:55:54Z</time>
            </trkpt>
            <trkpt lon="101.182408" lat="14.719985">
                <ele>179.903809</ele>
                <time>2006-11-25T06:56:07Z</time>
            </trkpt>
            <trkpt lon="101.182022" lat="14.719577">
                <ele>180.384521</ele>
                <time>2006-11-25T06:56:23Z</time>
            </trkpt>
            <trkpt lon="101.181872" lat="14.719405">
                <ele>180.384521</ele>
                <time>2006-11-25T06:56:37Z</time>
            </trkpt>
            <trkpt lon="101.181593" lat="14.719040">
                <ele>180.384521</ele>
                <time>2006-11-25T06:56:53Z</time>
            </trkpt>
            <trkpt lon="101.181357" lat="14.718633">
                <ele>177.020020</ele>
                <time>2006-11-25T06:57:09Z</time>
            </trkpt>
            <trkpt lon="101.181293" lat="14.718590">
                <ele>176.539307</ele>
                <time>2006-11-25T06:57:11Z</time>
            </trkpt>
            <trkpt lon="101.180928" lat="14.718654">
                <ele>175.577881</ele>
                <time>2006-11-25T06:57:19Z</time>
            </trkpt>
            <trkpt lon="101.180477" lat="14.718761">
                <ele>175.577881</ele>
                <time>2006-11-25T06:57:32Z</time>
            </trkpt>
            <trkpt lon="101.180327" lat="14.718118">
                <ele>178.942627</ele>
                <time>2006-11-25T06:57:54Z</time>
            </trkpt>
            <trkpt lon="101.180134" lat="14.717796">
                <ele>179.423218</ele>
                <time>2006-11-25T06:58:09Z</time>
            </trkpt>
            <trkpt lon="101.179554" lat="14.717946">
                <ele>181.345825</ele>
                <time>2006-11-25T06:58:27Z</time>
            </trkpt>
            <trkpt lon="101.178997" lat="14.718096">
                <ele>183.749023</ele>
                <time>2006-11-25T06:58:46Z</time>
            </trkpt>
            <trkpt lon="101.178417" lat="14.718139">
                <ele>182.787842</ele>
                <time>2006-11-25T06:59:03Z</time>
            </trkpt>
            <trkpt lon="101.178439" lat="14.718161">
                <ele>183.268433</ele>
                <time>2006-11-25T06:59:08Z</time>
            </trkpt>
            <trkpt lon="101.179018" lat="14.718096">
                <ele>182.307129</ele>
                <time>2006-11-25T06:59:22Z</time>
            </trkpt>
            <trkpt lon="101.179705" lat="14.717903">
                <ele>181.345825</ele>
                <time>2006-11-25T06:59:37Z</time>
            </trkpt>
            <trkpt lon="101.180134" lat="14.717796">
                <ele>180.865234</ele>
                <time>2006-11-25T06:59:46Z</time>
            </trkpt>
            <trkpt lon="101.180284" lat="14.717946">
                <ele>181.345825</ele>
                <time>2006-11-25T06:59:52Z</time>
            </trkpt>
            <trkpt lon="101.180413" lat="14.718697">
                <ele>181.826416</ele>
                <time>2006-11-25T07:00:06Z</time>
            </trkpt>
            <trkpt lon="101.180670" lat="14.718826">
                <ele>181.826416</ele>
                <time>2006-11-25T07:00:12Z</time>
            </trkpt>
            <trkpt lon="101.181207" lat="14.718676">
                <ele>181.345825</ele>
                <time>2006-11-25T07:00:20Z</time>
            </trkpt>
            <trkpt lon="101.181529" lat="14.718976">
                <ele>181.826416</ele>
                <time>2006-11-25T07:00:33Z</time>
            </trkpt>
            <trkpt lon="101.181915" lat="14.719512">
                <ele>180.384521</ele>
                <time>2006-11-25T07:00:51Z</time>
            </trkpt>
            <trkpt lon="101.182344" lat="14.719963">
                <ele>176.539307</ele>
                <time>2006-11-25T07:01:10Z</time>
            </trkpt>
            <trkpt lon="101.182365" lat="14.719963">
                <ele>177.981201</ele>
                <time>2006-11-25T07:01:34Z</time>
            </trkpt>
            <trkpt lon="101.182516" lat="14.720113">
                <ele>182.307129</ele>
                <time>2006-11-25T07:02:05Z</time>
            </trkpt>
            <trkpt lon="101.182880" lat="14.720714">
                <ele>181.826416</ele>
                <time>2006-11-25T07:02:25Z</time>
            </trkpt>
            <trkpt lon="101.183116" lat="14.721358">
                <ele>179.423218</ele>
                <time>2006-11-25T07:02:45Z</time>
            </trkpt>
            <trkpt lon="101.183181" lat="14.721529">
                <ele>180.865234</ele>
                <time>2006-11-25T07:02:50Z</time>
            </trkpt>
            <trkpt lon="101.183310" lat="14.721766">
                <ele>176.058594</ele>
                <time>2006-11-25T07:03:06Z</time>
            </trkpt>
            <trkpt lon="101.183395" lat="14.722109">
                <ele>175.097290</ele>
                <time>2006-11-25T07:03:24Z</time>
            </trkpt>
            <trkpt lon="101.183546" lat="14.722517">
                <ele>175.097290</ele>
                <time>2006-11-25T07:03:42Z</time>
            </trkpt>
            <trkpt lon="101.183696" lat="14.722860">
                <ele>175.577881</ele>
                <time>2006-11-25T07:04:02Z</time>
            </trkpt>
            <trkpt lon="101.183739" lat="14.722860">
                <ele>175.097290</ele>
                <time>2006-11-25T07:04:20Z</time>
            </trkpt>
            <trkpt lon="101.184039" lat="14.722731">
                <ele>170.771362</ele>
                <time>2006-11-25T07:04:27Z</time>
            </trkpt>
            <trkpt lon="101.184683" lat="14.722302">
                <ele>165.003418</ele>
                <time>2006-11-25T07:04:40Z</time>
            </trkpt>
            <trkpt lon="101.184769" lat="14.722238">
                <ele>165.003418</ele>
                <time>2006-11-25T07:04:45Z</time>
            </trkpt>
            <trkpt lon="101.184790" lat="14.721959">
                <ele>164.522705</ele>
                <time>2006-11-25T07:04:52Z</time>
            </trkpt>
            <trkpt lon="101.184983" lat="14.721551">
                <ele>165.964722</ele>
                <time>2006-11-25T07:05:02Z</time>
            </trkpt>
            <trkpt lon="101.185198" lat="14.721487">
                <ele>164.522705</ele>
                <time>2006-11-25T07:05:08Z</time>
            </trkpt>
            <trkpt lon="101.185241" lat="14.721401">
                <ele>164.522705</ele>
                <time>2006-11-25T07:05:17Z</time>
            </trkpt>
            <trkpt lon="101.185241" lat="14.721487">
                <ele>160.677490</ele>
                <time>2006-11-25T07:06:14Z</time>
            </trkpt>
            <trkpt lon="101.185284" lat="14.721465">
                <ele>158.754761</ele>
                <time>2006-11-25T07:06:19Z</time>
            </trkpt>
            <trkpt lon="101.185155" lat="14.721615">
                <ele>160.677490</ele>
                <time>2006-11-25T07:06:26Z</time>
            </trkpt>
            <trkpt lon="101.185048" lat="14.721508">
                <ele>160.196899</ele>
                <time>2006-11-25T07:06:31Z</time>
            </trkpt>
            <trkpt lon="101.185434" lat="14.720778">
                <ele>162.600098</ele>
                <time>2006-11-25T07:06:52Z</time>
            </trkpt>
            <trkpt lon="101.185799" lat="14.720199">
                <ele>167.887329</ele>
                <time>2006-11-25T07:07:11Z</time>
            </trkpt>
            <trkpt lon="101.185884" lat="14.720285">
                <ele>169.329468</ele>
                <time>2006-11-25T07:07:23Z</time>
            </trkpt>
            <trkpt lon="101.185842" lat="14.720199">
                <ele>188.075073</ele>
                <time>2006-11-25T07:11:52Z</time>
            </trkpt>
            <trkpt lon="101.185863" lat="14.720156">
                <ele>186.152466</ele>
                <time>2006-11-25T07:11:59Z</time>
            </trkpt>
            <trkpt lon="101.185863" lat="14.720092">
                <ele>184.710571</ele>
                <time>2006-11-25T07:12:03Z</time>
            </trkpt>
            <trkpt lon="101.186206" lat="14.719448">
                <ele>178.461914</ele>
                <time>2006-11-25T07:12:26Z</time>
            </trkpt>
            <trkpt lon="101.186550" lat="14.718740">
                <ele>177.500610</ele>
                <time>2006-11-25T07:12:50Z</time>
            </trkpt>
            <trkpt lon="101.186721" lat="14.717903">
                <ele>175.097290</ele>
                <time>2006-11-25T07:13:13Z</time>
            </trkpt>
            <trkpt lon="101.186743" lat="14.716637">
                <ele>172.693970</ele>
                <time>2006-11-25T07:13:41Z</time>
            </trkpt>
            <trkpt lon="101.187043" lat="14.715457">
                <ele>174.135864</ele>
                <time>2006-11-25T07:14:05Z</time>
            </trkpt>
            <trkpt lon="101.187258" lat="14.714577">
                <ele>172.693970</ele>
                <time>2006-11-25T07:14:23Z</time>
            </trkpt>
            <trkpt lon="101.187108" lat="14.713655">
                <ele>175.097290</ele>
                <time>2006-11-25T07:14:44Z</time>
            </trkpt>
            <trkpt lon="101.186743" lat="14.712753">
                <ele>178.461914</ele>
                <time>2006-11-25T07:15:06Z</time>
            </trkpt>
            <trkpt lon="101.186206" lat="14.711788">
                <ele>179.423218</ele>
                <time>2006-11-25T07:15:27Z</time>
            </trkpt>
            <trkpt lon="101.185477" lat="14.710779">
                <ele>180.384521</ele>
                <time>2006-11-25T07:15:48Z</time>
            </trkpt>
            <trkpt lon="101.185284" lat="14.710457">
                <ele>179.423218</ele>
                <time>2006-11-25T07:15:54Z</time>
            </trkpt>
            <trkpt lon="101.185241" lat="14.710200">
                <ele>177.981201</ele>
                <time>2006-11-25T07:15:58Z</time>
            </trkpt>
            <trkpt lon="101.185284" lat="14.709985">
                <ele>178.461914</ele>
                <time>2006-11-25T07:16:02Z</time>
            </trkpt>
            <trkpt lon="101.185584" lat="14.709578">
                <ele>176.058594</ele>
                <time>2006-11-25T07:16:14Z</time>
            </trkpt>
            <trkpt lon="101.186399" lat="14.708998">
                <ele>178.461914</ele>
                <time>2006-11-25T07:16:38Z</time>
            </trkpt>
            <trkpt lon="101.186957" lat="14.708612">
                <ele>179.903809</ele>
                <time>2006-11-25T07:16:57Z</time>
            </trkpt>
            <trkpt lon="101.187000" lat="14.708569">
                <ele>179.903809</ele>
                <time>2006-11-25T07:16:59Z</time>
            </trkpt>
            <trkpt lon="101.186979" lat="14.708569">
                <ele>179.423218</ele>
                <time>2006-11-25T07:17:05Z</time>
            </trkpt>
            <trkpt lon="101.186957" lat="14.708655">
                <ele>178.942627</ele>
                <time>2006-11-25T07:17:10Z</time>
            </trkpt>
            <trkpt lon="101.187000" lat="14.708762">
                <ele>178.461914</ele>
                <time>2006-11-25T07:17:13Z</time>
            </trkpt>
            <trkpt lon="101.187193" lat="14.709170">
                <ele>178.461914</ele>
                <time>2006-11-25T07:17:21Z</time>
            </trkpt>
            <trkpt lon="101.187193" lat="14.709449">
                <ele>178.942627</ele>
                <time>2006-11-25T07:17:26Z</time>
            </trkpt>
            <trkpt lon="101.187408" lat="14.710307">
                <ele>177.500610</ele>
                <time>2006-11-25T07:17:42Z</time>
            </trkpt>
            <trkpt lon="101.187408" lat="14.710393">
                <ele>177.020020</ele>
                <time>2006-11-25T07:17:44Z</time>
            </trkpt>
            <trkpt lon="101.187515" lat="14.710522">
                <ele>176.058594</ele>
                <time>2006-11-25T07:17:48Z</time>
            </trkpt>
            <trkpt lon="101.188030" lat="14.710693">
                <ele>175.097290</ele>
                <time>2006-11-25T07:18:04Z</time>
            </trkpt>
            <trkpt lon="101.188502" lat="14.710801">
                <ele>175.097290</ele>
                <time>2006-11-25T07:18:20Z</time>
            </trkpt>
            <trkpt lon="101.188567" lat="14.710886">
                <ele>174.616577</ele>
                <time>2006-11-25T07:18:25Z</time>
            </trkpt>
            <trkpt lon="101.188931" lat="14.711595">
                <ele>176.058594</ele>
                <time>2006-11-25T07:18:45Z</time>
            </trkpt>
            <trkpt lon="101.189425" lat="14.712453">
                <ele>177.500610</ele>
                <time>2006-11-25T07:19:06Z</time>
            </trkpt>
            <trkpt lon="101.189919" lat="14.713376">
                <ele>177.500610</ele>
                <time>2006-11-25T07:19:28Z</time>
            </trkpt>
            <trkpt lon="101.190133" lat="14.713848">
                <ele>178.942627</ele>
                <time>2006-11-25T07:19:41Z</time>
            </trkpt>
            <trkpt lon="101.189983" lat="14.714234">
                <ele>178.461914</ele>
                <time>2006-11-25T07:19:54Z</time>
            </trkpt>
            <trkpt lon="101.189854" lat="14.714470">
                <ele>179.423218</ele>
                <time>2006-11-25T07:20:07Z</time>
            </trkpt>
            <trkpt lon="101.189876" lat="14.714448">
                <ele>178.942627</ele>
                <time>2006-11-25T07:20:11Z</time>
            </trkpt>
            <trkpt lon="101.189961" lat="14.714212">
                <ele>177.981201</ele>
                <time>2006-11-25T07:20:30Z</time>
            </trkpt>
            <trkpt lon="101.189961" lat="14.714191">
                <ele>175.577881</ele>
                <time>2006-11-25T07:20:42Z</time>
            </trkpt>
            <trkpt lon="101.190004" lat="14.714148">
                <ele>175.577881</ele>
                <time>2006-11-25T07:20:46Z</time>
            </trkpt>
            <trkpt lon="101.190133" lat="14.713697">
                <ele>174.135864</ele>
                <time>2006-11-25T07:21:01Z</time>
            </trkpt>
            <trkpt lon="101.190112" lat="14.713633">
                <ele>173.655273</ele>
                <time>2006-11-25T07:21:03Z</time>
            </trkpt>
            <trkpt lon="101.189682" lat="14.712861">
                <ele>174.616577</ele>
                <time>2006-11-25T07:21:24Z</time>
            </trkpt>
            <trkpt lon="101.189532" lat="14.712646">
                <ele>176.058594</ele>
                <time>2006-11-25T07:21:40Z</time>
            </trkpt>
            <trkpt lon="101.189511" lat="14.712646">
                <ele>178.461914</ele>
                <time>2006-11-25T07:23:15Z</time>
            </trkpt>
            <trkpt lon="101.189446" lat="14.712539">
                <ele>176.539307</ele>
                <time>2006-11-25T07:23:49Z</time>
            </trkpt>
            <trkpt lon="101.189210" lat="14.712067">
                <ele>178.461914</ele>
                <time>2006-11-25T07:24:07Z</time>
            </trkpt>
            <trkpt lon="101.188931" lat="14.711552">
                <ele>179.903809</ele>
                <time>2006-11-25T07:24:22Z</time>
            </trkpt>
            <trkpt lon="101.188631" lat="14.710994">
                <ele>181.826416</ele>
                <time>2006-11-25T07:24:44Z</time>
            </trkpt>
            <trkpt lon="101.188374" lat="14.710715">
                <ele>178.461914</ele>
                <time>2006-11-25T07:25:02Z</time>
            </trkpt>
            <trkpt lon="101.188030" lat="14.710672">
                <ele>176.539307</ele>
                <time>2006-11-25T07:25:17Z</time>
            </trkpt>
            <trkpt lon="101.187494" lat="14.710371">
                <ele>175.577881</ele>
                <time>2006-11-25T07:25:35Z</time>
            </trkpt>
            <trkpt lon="101.187472" lat="14.710157">
                <ele>171.252075</ele>
                <time>2006-11-25T07:25:43Z</time>
            </trkpt>
            <trkpt lon="101.187322" lat="14.709749">
                <ele>173.174683</ele>
                <time>2006-11-25T07:25:59Z</time>
            </trkpt>
            <trkpt lon="101.187236" lat="14.709256">
                <ele>174.616577</ele>
                <time>2006-11-25T07:26:16Z</time>
            </trkpt>
            <trkpt lon="101.187065" lat="14.708869">
                <ele>176.539307</ele>
                <time>2006-11-25T07:26:33Z</time>
            </trkpt>
            <trkpt lon="101.186893" lat="14.708676">
                <ele>177.020020</ele>
                <time>2006-11-25T07:26:48Z</time>
            </trkpt>
            <trkpt lon="101.186893" lat="14.708655">
                <ele>183.268433</ele>
                <time>2006-11-25T07:27:28Z</time>
            </trkpt>
            <trkpt lon="101.186872" lat="14.708655">
                <ele>182.787842</ele>
                <time>2006-11-25T07:27:31Z</time>
            </trkpt>
            <trkpt lon="101.186614" lat="14.708869">
                <ele>182.307129</ele>
                <time>2006-11-25T07:27:47Z</time>
            </trkpt>
            <trkpt lon="101.186271" lat="14.709148">
                <ele>179.903809</ele>
                <time>2006-11-25T07:28:02Z</time>
            </trkpt>
            <trkpt lon="101.185691" lat="14.709599">
                <ele>177.500610</ele>
                <time>2006-11-25T07:28:20Z</time>
            </trkpt>
            <trkpt lon="101.185434" lat="14.709814">
                <ele>177.020020</ele>
                <time>2006-11-25T07:28:27Z</time>
            </trkpt>
            <trkpt lon="101.185305" lat="14.710007">
                <ele>176.539307</ele>
                <time>2006-11-25T07:28:32Z</time>
            </trkpt>
            <trkpt lon="101.185155" lat="14.710007">
                <ele>175.577881</ele>
                <time>2006-11-25T07:28:36Z</time>
            </trkpt>
            <trkpt lon="101.184833" lat="14.709878">
                <ele>175.097290</ele>
                <time>2006-11-25T07:28:43Z</time>
            </trkpt>
            <trkpt lon="101.184704" lat="14.709857">
                <ele>175.097290</ele>
                <time>2006-11-25T07:28:46Z</time>
            </trkpt>
            <trkpt lon="101.183867" lat="14.710114">
                <ele>176.539307</ele>
                <time>2006-11-25T07:29:03Z</time>
            </trkpt>
            <trkpt lon="101.183031" lat="14.710350">
                <ele>179.423218</ele>
                <time>2006-11-25T07:29:23Z</time>
            </trkpt>
            <trkpt lon="101.182237" lat="14.710629">
                <ele>180.865234</ele>
                <time>2006-11-25T07:29:41Z</time>
            </trkpt>
            <trkpt lon="101.181271" lat="14.710951">
                <ele>184.229858</ele>
                <time>2006-11-25T07:30:04Z</time>
            </trkpt>
            <trkpt lon="101.180220" lat="14.711165">
                <ele>183.268433</ele>
                <time>2006-11-25T07:30:27Z</time>
            </trkpt>
            <trkpt lon="101.178975" lat="14.711359">
                <ele>183.749023</ele>
                <time>2006-11-25T07:30:53Z</time>
            </trkpt>
            <trkpt lon="101.177945" lat="14.711509">
                <ele>183.268433</ele>
                <time>2006-11-25T07:31:14Z</time>
            </trkpt>
            <trkpt lon="101.177258" lat="14.711595">
                <ele>182.787842</ele>
                <time>2006-11-25T07:31:29Z</time>
            </trkpt>
            <trkpt lon="101.176658" lat="14.711616">
                <ele>186.152466</ele>
                <time>2006-11-25T07:31:50Z</time>
            </trkpt>
            <trkpt lon="101.176550" lat="14.711637">
                <ele>186.633179</ele>
                <time>2006-11-25T07:31:56Z</time>
            </trkpt>
            <trkpt lon="101.176250" lat="14.711809">
                <ele>188.075073</ele>
                <time>2006-11-25T07:32:10Z</time>
            </trkpt>
            <trkpt lon="101.175649" lat="14.712195">
                <ele>191.439575</ele>
                <time>2006-11-25T07:32:32Z</time>
            </trkpt>
            <trkpt lon="101.175220" lat="14.712453">
                <ele>190.478394</ele>
                <time>2006-11-25T07:32:50Z</time>
            </trkpt>
            <trkpt lon="101.174984" lat="14.712582">
                <ele>189.997681</ele>
                <time>2006-11-25T07:32:57Z</time>
            </trkpt>
            <trkpt lon="101.174448" lat="14.712710">
                <ele>189.036377</ele>
                <time>2006-11-25T07:33:13Z</time>
            </trkpt>
            <trkpt lon="101.173975" lat="14.712732">
                <ele>192.881714</ele>
                <time>2006-11-25T07:33:31Z</time>
            </trkpt>
            <trkpt lon="101.173632" lat="14.712732">
                <ele>195.284912</ele>
                <time>2006-11-25T07:33:46Z</time>
            </trkpt>
            <trkpt lon="101.173439" lat="14.712753">
                <ele>195.765625</ele>
                <time>2006-11-25T07:34:00Z</time>
            </trkpt>
            <trkpt lon="101.173439" lat="14.712753">
                <ele>199.130127</ele>
                <time>2006-11-25T07:34:18Z</time>
            </trkpt>
            <trkpt lon="101.173439" lat="14.713032">
                <ele>202.014282</ele>
                <time>2006-11-25T07:34:38Z</time>
            </trkpt>
            <trkpt lon="101.173460" lat="14.713376">
                <ele>205.378784</ele>
                <time>2006-11-25T07:35:00Z</time>
            </trkpt>
            <trkpt lon="101.173460" lat="14.713655">
                <ele>206.340088</ele>
                <time>2006-11-25T07:35:17Z</time>
            </trkpt>
            <trkpt lon="101.173353" lat="14.713933">
                <ele>205.378784</ele>
                <time>2006-11-25T07:35:33Z</time>
            </trkpt>
            <trkpt lon="101.173160" lat="14.714041">
                <ele>207.301392</ele>
                <time>2006-11-25T07:35:48Z</time>
            </trkpt>
            <trkpt lon="101.173096" lat="14.714041">
                <ele>208.262817</ele>
                <time>2006-11-25T07:36:02Z</time>
            </trkpt>
            <trkpt lon="101.173096" lat="14.714062">
                <ele>208.262817</ele>
                <time>2006-11-25T07:36:47Z</time>
            </trkpt>
            <trkpt lon="101.172988" lat="14.714277">
                <ele>205.859497</ele>
                <time>2006-11-25T07:37:02Z</time>
            </trkpt>
            <trkpt lon="101.172988" lat="14.714277">
                <ele>205.859497</ele>
                <time>2006-11-25T07:37:06Z</time>
            </trkpt>
            <trkpt lon="101.172988" lat="14.714427">
                <ele>207.782104</ele>
                <time>2006-11-25T07:37:16Z</time>
            </trkpt>
            <trkpt lon="101.172945" lat="14.714491">
                <ele>208.262817</ele>
                <time>2006-11-25T07:37:21Z</time>
            </trkpt>
            <trkpt lon="101.172752" lat="14.714599">
                <ele>210.666016</ele>
                <time>2006-11-25T07:37:39Z</time>
            </trkpt>
            <trkpt lon="101.172731" lat="14.714620">
                <ele>212.108032</ele>
                <time>2006-11-25T07:37:58Z</time>
            </trkpt>
            <trkpt lon="101.172709" lat="14.714663">
                <ele>211.627441</ele>
                <time>2006-11-25T07:38:19Z</time>
            </trkpt>
            <trkpt lon="101.172731" lat="14.714663">
                <ele>211.146729</ele>
                <time>2006-11-25T07:39:04Z</time>
            </trkpt>
            <trkpt lon="101.172624" lat="14.714749">
                <ele>213.550049</ele>
                <time>2006-11-25T07:40:59Z</time>
            </trkpt>
            <trkpt lon="101.172538" lat="14.714856">
                <ele>215.472656</ele>
                <time>2006-11-25T07:41:18Z</time>
            </trkpt>
            <trkpt lon="101.172452" lat="14.714963">
                <ele>216.914673</ele>
                <time>2006-11-25T07:41:37Z</time>
            </trkpt>
            <trkpt lon="101.172409" lat="14.714985">
                <ele>216.433960</ele>
                <time>2006-11-25T07:41:53Z</time>
            </trkpt>
            <trkpt lon="101.172388" lat="14.714985">
                <ele>216.433960</ele>
                <time>2006-11-25T07:42:19Z</time>
            </trkpt>
            <trkpt lon="101.172388" lat="14.714985">
                <ele>215.953247</ele>
                <time>2006-11-25T07:42:46Z</time>
            </trkpt>
            <trkpt lon="101.172388" lat="14.715006">
                <ele>216.914673</ele>
                <time>2006-11-25T07:43:25Z</time>
            </trkpt>
            <trkpt lon="101.172366" lat="14.715028">
                <ele>217.395386</ele>
                <time>2006-11-25T07:43:51Z</time>
            </trkpt>
            <trkpt lon="101.172345" lat="14.715135">
                <ele>217.395386</ele>
                <time>2006-11-25T07:44:07Z</time>
            </trkpt>
            <trkpt lon="101.172366" lat="14.715135">
                <ele>214.030640</ele>
                <time>2006-11-25T07:45:02Z</time>
            </trkpt>
            <trkpt lon="101.172366" lat="14.715135">
                <ele>211.146729</ele>
                <time>2006-11-25T07:45:51Z</time>
            </trkpt>
            <trkpt lon="101.172366" lat="14.715135">
                <ele>214.511230</ele>
                <time>2006-11-25T07:46:38Z</time>
            </trkpt>
            <trkpt lon="101.172345" lat="14.715114">
                <ele>216.433960</ele>
                <time>2006-11-25T07:47:32Z</time>
            </trkpt>
            <trkpt lon="101.172345" lat="14.715114">
                <ele>219.798584</ele>
                <time>2006-11-25T07:49:39Z</time>
            </trkpt>
            <trkpt lon="101.172280" lat="14.715157">
                <ele>219.798584</ele>
                <time>2006-11-25T07:49:52Z</time>
            </trkpt>
            <trkpt lon="101.172194" lat="14.715199">
                <ele>221.721191</ele>
                <time>2006-11-25T07:50:09Z</time>
            </trkpt>
            <trkpt lon="101.172109" lat="14.715264">
                <ele>225.566528</ele>
                <time>2006-11-25T07:50:24Z</time>
            </trkpt>
            <trkpt lon="101.172023" lat="14.715264">
                <ele>226.047119</ele>
                <time>2006-11-25T07:50:42Z</time>
            </trkpt>
            <trkpt lon="101.171980" lat="14.715242">
                <ele>226.047119</ele>
                <time>2006-11-25T07:50:59Z</time>
            </trkpt>
            <trkpt lon="101.171916" lat="14.715221">
                <ele>227.008545</ele>
                <time>2006-11-25T07:51:15Z</time>
            </trkpt>
            <trkpt lon="101.171894" lat="14.715221">
                <ele>227.008545</ele>
                <time>2006-11-25T07:51:31Z</time>
            </trkpt>
            <trkpt lon="101.171830" lat="14.715199">
                <ele>229.411743</ele>
                <time>2006-11-25T07:51:45Z</time>
            </trkpt>
            <trkpt lon="101.171744" lat="14.715157">
                <ele>230.373047</ele>
                <time>2006-11-25T07:52:07Z</time>
            </trkpt>
            <trkpt lon="101.171658" lat="14.715114">
                <ele>231.334351</ele>
                <time>2006-11-25T07:52:26Z</time>
            </trkpt>
            <trkpt lon="101.171551" lat="14.715114">
                <ele>233.737671</ele>
                <time>2006-11-25T07:52:46Z</time>
            </trkpt>
            <trkpt lon="101.171465" lat="14.715092">
                <ele>236.621704</ele>
                <time>2006-11-25T07:53:03Z</time>
            </trkpt>
            <trkpt lon="101.171401" lat="14.715071">
                <ele>238.544312</ele>
                <time>2006-11-25T07:53:28Z</time>
            </trkpt>
            <trkpt lon="101.171272" lat="14.715092">
                <ele>238.063599</ele>
                <time>2006-11-25T07:53:48Z</time>
            </trkpt>
            <trkpt lon="101.171165" lat="14.715135">
                <ele>238.544312</ele>
                <time>2006-11-25T07:54:10Z</time>
            </trkpt>
            <trkpt lon="101.171036" lat="14.715242">
                <ele>238.544312</ele>
                <time>2006-11-25T07:54:30Z</time>
            </trkpt>
            <trkpt lon="101.171036" lat="14.715285">
                <ele>238.544312</ele>
                <time>2006-11-25T07:54:45Z</time>
            </trkpt>
            <trkpt lon="101.170971" lat="14.715328">
                <ele>240.947632</ele>
                <time>2006-11-25T07:57:51Z</time>
            </trkpt>
            <trkpt lon="101.170843" lat="14.715393">
                <ele>239.986206</ele>
                <time>2006-11-25T07:58:08Z</time>
            </trkpt>
            <trkpt lon="101.170821" lat="14.715414">
                <ele>239.986206</ele>
                <time>2006-11-25T07:58:11Z</time>
            </trkpt>
            <trkpt lon="101.170671" lat="14.715478">
                <ele>239.986206</ele>
                <time>2006-11-25T07:58:31Z</time>
            </trkpt>
            <trkpt lon="101.170542" lat="14.715543">
                <ele>239.986206</ele>
                <time>2006-11-25T07:58:47Z</time>
            </trkpt>
            <trkpt lon="101.170435" lat="14.715564">
                <ele>239.024902</ele>
                <time>2006-11-25T07:59:06Z</time>
            </trkpt>
            <trkpt lon="101.170285" lat="14.715650">
                <ele>238.063599</ele>
                <time>2006-11-25T07:59:24Z</time>
            </trkpt>
            <trkpt lon="101.170177" lat="14.715672">
                <ele>238.063599</ele>
                <time>2006-11-25T07:59:38Z</time>
            </trkpt>
            <trkpt lon="101.170070" lat="14.715693">
                <ele>240.947632</ele>
                <time>2006-11-25T07:59:55Z</time>
            </trkpt>
            <trkpt lon="101.169941" lat="14.715714">
                <ele>241.428223</ele>
                <time>2006-11-25T08:00:13Z</time>
            </trkpt>
            <trkpt lon="101.169813" lat="14.715757">
                <ele>241.908936</ele>
                <time>2006-11-25T08:00:29Z</time>
            </trkpt>
            <trkpt lon="101.169748" lat="14.715736">
                <ele>241.908936</ele>
                <time>2006-11-25T08:00:44Z</time>
            </trkpt>
            <trkpt lon="101.169662" lat="14.715736">
                <ele>241.428223</ele>
                <time>2006-11-25T08:01:20Z</time>
            </trkpt>
            <trkpt lon="101.169426" lat="14.715672">
                <ele>240.947632</ele>
                <time>2006-11-25T08:01:39Z</time>
            </trkpt>
            <trkpt lon="101.169126" lat="14.715629">
                <ele>239.024902</ele>
                <time>2006-11-25T08:01:54Z</time>
            </trkpt>
            <trkpt lon="101.168847" lat="14.715586">
                <ele>239.986206</ele>
                <time>2006-11-25T08:02:11Z</time>
            </trkpt>
            <trkpt lon="101.168633" lat="14.715564">
                <ele>239.505493</ele>
                <time>2006-11-25T08:02:25Z</time>
            </trkpt>
            <trkpt lon="101.168525" lat="14.715607">
                <ele>239.505493</ele>
                <time>2006-11-25T08:02:41Z</time>
            </trkpt>
            <trkpt lon="101.168461" lat="14.715629">
                <ele>241.428223</ele>
                <time>2006-11-25T08:03:03Z</time>
            </trkpt>
            <trkpt lon="101.168396" lat="14.715650">
                <ele>242.389648</ele>
                <time>2006-11-25T08:03:23Z</time>
            </trkpt>
            <trkpt lon="101.168354" lat="14.715629">
                <ele>243.831543</ele>
                <time>2006-11-25T08:03:46Z</time>
            </trkpt>
            <trkpt lon="101.168311" lat="14.715607">
                <ele>244.792847</ele>
                <time>2006-11-25T08:04:03Z</time>
            </trkpt>
            <trkpt lon="101.168225" lat="14.715629">
                <ele>249.118774</ele>
                <time>2006-11-25T08:06:16Z</time>
            </trkpt>
            <trkpt lon="101.167989" lat="14.715586">
                <ele>246.715454</ele>
                <time>2006-11-25T08:06:38Z</time>
            </trkpt>
            <trkpt lon="101.167796" lat="14.715543">
                <ele>246.234863</ele>
                <time>2006-11-25T08:06:57Z</time>
            </trkpt>
            <trkpt lon="101.167710" lat="14.715607">
                <ele>246.234863</ele>
                <time>2006-11-25T08:07:15Z</time>
            </trkpt>
            <trkpt lon="101.167710" lat="14.715714">
                <ele>248.638184</ele>
                <time>2006-11-25T08:07:38Z</time>
            </trkpt>
            <trkpt lon="101.167710" lat="14.715757">
                <ele>250.560791</ele>
                <time>2006-11-25T08:07:56Z</time>
            </trkpt>
            <trkpt lon="101.167710" lat="14.715757">
                <ele>251.522095</ele>
                <time>2006-11-25T08:08:04Z</time>
            </trkpt>
            <trkpt lon="101.167710" lat="14.715950">
                <ele>251.041382</ele>
                <time>2006-11-25T08:08:24Z</time>
            </trkpt>
            <trkpt lon="101.167710" lat="14.716036">
                <ele>249.599487</ele>
                <time>2006-11-25T08:08:40Z</time>
            </trkpt>
            <trkpt lon="101.167645" lat="14.716144">
                <ele>251.041382</ele>
                <time>2006-11-25T08:09:06Z</time>
            </trkpt>
            <trkpt lon="101.167667" lat="14.716122">
                <ele>251.041382</ele>
                <time>2006-11-25T08:09:55Z</time>
            </trkpt>
            <trkpt lon="101.167667" lat="14.716144">
                <ele>252.483398</ele>
                <time>2006-11-25T08:10:52Z</time>
            </trkpt>
            <trkpt lon="101.167345" lat="14.716229">
                <ele>252.002808</ele>
                <time>2006-11-25T08:11:09Z</time>
            </trkpt>
            <trkpt lon="101.166980" lat="14.716315">
                <ele>253.444702</ele>
                <time>2006-11-25T08:11:31Z</time>
            </trkpt>
            <trkpt lon="101.166916" lat="14.716315">
                <ele>253.444702</ele>
                <time>2006-11-25T08:11:40Z</time>
            </trkpt>
            <trkpt lon="101.166873" lat="14.716294">
                <ele>253.925415</ele>
                <time>2006-11-25T08:11:44Z</time>
            </trkpt>
            <trkpt lon="101.166680" lat="14.716294">
                <ele>255.367310</ele>
                <time>2006-11-25T08:11:58Z</time>
            </trkpt>
            <trkpt lon="101.166615" lat="14.716229">
                <ele>257.770752</ele>
                <time>2006-11-25T08:12:10Z</time>
            </trkpt>
            <trkpt lon="101.166530" lat="14.716208">
                <ele>259.212646</ele>
                <time>2006-11-25T08:12:24Z</time>
            </trkpt>
            <trkpt lon="101.166487" lat="14.716315">
                <ele>258.731934</ele>
                <time>2006-11-25T08:12:43Z</time>
            </trkpt>
            <trkpt lon="101.166487" lat="14.716315">
                <ele>261.135254</ele>
                <time>2006-11-25T08:13:42Z</time>
            </trkpt>
            <trkpt lon="101.166508" lat="14.716337">
                <ele>258.731934</ele>
                <time>2006-11-25T08:14:22Z</time>
            </trkpt>
            <trkpt lon="101.166508" lat="14.716358">
                <ele>260.654541</ele>
                <time>2006-11-25T08:15:28Z</time>
            </trkpt>
            <trkpt lon="101.166487" lat="14.716444">
                <ele>259.693359</ele>
                <time>2006-11-25T08:15:50Z</time>
            </trkpt>
            <trkpt lon="101.166465" lat="14.716423">
                <ele>263.538574</ele>
                <time>2006-11-25T08:18:22Z</time>
            </trkpt>
            <trkpt lon="101.166465" lat="14.716530">
                <ele>262.096558</ele>
                <time>2006-11-25T08:18:45Z</time>
            </trkpt>
            <trkpt lon="101.166422" lat="14.716830">
                <ele>262.096558</ele>
                <time>2006-11-25T08:19:02Z</time>
            </trkpt>
            <trkpt lon="101.166229" lat="14.717324">
                <ele>263.538574</ele>
                <time>2006-11-25T08:19:28Z</time>
            </trkpt>
            <trkpt lon="101.166036" lat="14.717839">
                <ele>266.422485</ele>
                <time>2006-11-25T08:19:53Z</time>
            </trkpt>
            <trkpt lon="101.165843" lat="14.718311">
                <ele>267.864502</ele>
                <time>2006-11-25T08:20:16Z</time>
            </trkpt>
            <trkpt lon="101.165650" lat="14.718740">
                <ele>269.787109</ele>
                <time>2006-11-25T08:20:36Z</time>
            </trkpt>
            <trkpt lon="101.165392" lat="14.719384">
                <ele>272.671143</ele>
                <time>2006-11-25T08:21:04Z</time>
            </trkpt>
            <trkpt lon="101.165135" lat="14.719985">
                <ele>274.593750</ele>
                <time>2006-11-25T08:21:28Z</time>
            </trkpt>
            <trkpt lon="101.164877" lat="14.720585">
                <ele>277.958252</ele>
                <time>2006-11-25T08:21:54Z</time>
            </trkpt>
            <trkpt lon="101.164727" lat="14.720907">
                <ele>279.880859</ele>
                <time>2006-11-25T08:22:12Z</time>
            </trkpt>
            <trkpt lon="101.164641" lat="14.721401">
                <ele>281.803589</ele>
                <time>2006-11-25T08:22:32Z</time>
            </trkpt>
            <trkpt lon="101.164684" lat="14.722066">
                <ele>280.842407</ele>
                <time>2006-11-25T08:22:52Z</time>
            </trkpt>
            <trkpt lon="101.164727" lat="14.722860">
                <ele>279.880859</ele>
                <time>2006-11-25T08:23:11Z</time>
            </trkpt>
            <trkpt lon="101.164706" lat="14.723589">
                <ele>283.245605</ele>
                <time>2006-11-25T08:23:33Z</time>
            </trkpt>
            <trkpt lon="101.164491" lat="14.724190">
                <ele>287.090820</ele>
                <time>2006-11-25T08:23:56Z</time>
            </trkpt>
            <trkpt lon="101.164148" lat="14.724619">
                <ele>292.378174</ele>
                <time>2006-11-25T08:24:18Z</time>
            </trkpt>
            <trkpt lon="101.163740" lat="14.724791">
                <ele>295.261963</ele>
                <time>2006-11-25T08:24:40Z</time>
            </trkpt>
            <trkpt lon="101.163204" lat="14.724834">
                <ele>298.626709</ele>
                <time>2006-11-25T08:25:05Z</time>
            </trkpt>
            <trkpt lon="101.162775" lat="14.724877">
                <ele>302.471924</ele>
                <time>2006-11-25T08:25:28Z</time>
            </trkpt>
            <trkpt lon="101.162388" lat="14.724920">
                <ele>306.317261</ele>
                <time>2006-11-25T08:25:50Z</time>
            </trkpt>
            <trkpt lon="101.161981" lat="14.724984">
                <ele>310.162476</ele>
                <time>2006-11-25T08:26:11Z</time>
            </trkpt>
            <trkpt lon="101.161530" lat="14.725070">
                <ele>313.527222</ele>
                <time>2006-11-25T08:26:34Z</time>
            </trkpt>
            <trkpt lon="101.161058" lat="14.725156">
                <ele>316.411011</ele>
                <time>2006-11-25T08:26:57Z</time>
            </trkpt>
            <trkpt lon="101.160693" lat="14.725220">
                <ele>318.814331</ele>
                <time>2006-11-25T08:27:17Z</time>
            </trkpt>
            <trkpt lon="101.160650" lat="14.725199">
                <ele>320.256348</ele>
                <time>2006-11-25T08:27:34Z</time>
            </trkpt>
            <trkpt lon="101.160564" lat="14.725070">
                <ele>325.062988</ele>
                <time>2006-11-25T08:28:00Z</time>
            </trkpt>
            <trkpt lon="101.160457" lat="14.724920">
                <ele>327.466187</ele>
                <time>2006-11-25T08:28:23Z</time>
            </trkpt>
            <trkpt lon="101.160393" lat="14.724877">
                <ele>329.388916</ele>
                <time>2006-11-25T08:28:43Z</time>
            </trkpt>
            <trkpt lon="101.160393" lat="14.724855">
                <ele>330.350220</ele>
                <time>2006-11-25T08:29:29Z</time>
            </trkpt>
            <trkpt lon="101.160393" lat="14.724834">
                <ele>331.792114</ele>
                <time>2006-11-25T08:30:05Z</time>
            </trkpt>
            <trkpt lon="101.160393" lat="14.724834">
                <ele>330.830933</ele>
                <time>2006-11-25T08:30:57Z</time>
            </trkpt>
            <trkpt lon="101.160350" lat="14.724813">
                <ele>333.234131</ele>
                <time>2006-11-25T08:34:58Z</time>
            </trkpt>
            <trkpt lon="101.160350" lat="14.724791">
                <ele>332.272827</ele>
                <time>2006-11-25T08:35:08Z</time>
            </trkpt>
            <trkpt lon="101.160135" lat="14.724534">
                <ele>332.272827</ele>
                <time>2006-11-25T08:35:26Z</time>
            </trkpt>
            <trkpt lon="101.159856" lat="14.724169">
                <ele>333.234131</ele>
                <time>2006-11-25T08:35:50Z</time>
            </trkpt>
            <trkpt lon="101.159663" lat="14.723933">
                <ele>335.637329</ele>
                <time>2006-11-25T08:36:09Z</time>
            </trkpt>
            <trkpt lon="101.159406" lat="14.723697">
                <ele>336.598877</ele>
                <time>2006-11-25T08:36:28Z</time>
            </trkpt>
            <trkpt lon="101.159105" lat="14.723525">
                <ele>337.560059</ele>
                <time>2006-11-25T08:36:46Z</time>
            </trkpt>
            <trkpt lon="101.158869" lat="14.723418">
                <ele>339.482666</ele>
                <time>2006-11-25T08:37:04Z</time>
            </trkpt>
            <trkpt lon="101.158633" lat="14.723310">
                <ele>342.847290</ele>
                <time>2006-11-25T08:37:23Z</time>
            </trkpt>
            <trkpt lon="101.158440" lat="14.723203">
                <ele>344.770020</ele>
                <time>2006-11-25T08:37:41Z</time>
            </trkpt>
            <trkpt lon="101.158247" lat="14.723096">
                <ele>348.134644</ele>
                <time>2006-11-25T08:38:00Z</time>
            </trkpt>
            <trkpt lon="101.158226" lat="14.723032">
                <ele>350.537842</ele>
                <time>2006-11-25T08:38:07Z</time>
            </trkpt>
            <trkpt lon="101.158333" lat="14.722753">
                <ele>352.460571</ele>
                <time>2006-11-25T08:38:30Z</time>
            </trkpt>
            <trkpt lon="101.158290" lat="14.722731">
                <ele>354.863770</ele>
                <time>2006-11-25T08:38:43Z</time>
            </trkpt>
            <trkpt lon="101.158268" lat="14.722710">
                <ele>356.786377</ele>
                <time>2006-11-25T08:38:59Z</time>
            </trkpt>
            <trkpt lon="101.158204" lat="14.722688">
                <ele>362.554321</ele>
                <time>2006-11-25T08:39:13Z</time>
            </trkpt>
            <trkpt lon="101.158075" lat="14.722602">
                <ele>363.515747</ele>
                <time>2006-11-25T08:39:32Z</time>
            </trkpt>
            <trkpt lon="101.157968" lat="14.722517">
                <ele>363.996338</ele>
                <time>2006-11-25T08:39:43Z</time>
            </trkpt>
            <trkpt lon="101.157925" lat="14.722452">
                <ele>363.035034</ele>
                <time>2006-11-25T08:39:45Z</time>
            </trkpt>
            <trkpt lon="101.157861" lat="14.722302">
                <ele>362.073730</ele>
                <time>2006-11-25T08:39:48Z</time>
            </trkpt>
            <trkpt lon="101.157839" lat="14.722002">
                <ele>361.112427</ele>
                <time>2006-11-25T08:39:53Z</time>
            </trkpt>
            <trkpt lon="101.157753" lat="14.721701">
                <ele>360.631714</ele>
                <time>2006-11-25T08:39:58Z</time>
            </trkpt>
            <trkpt lon="101.157346" lat="14.720457">
                <ele>353.421875</ele>
                <time>2006-11-25T08:40:12Z</time>
            </trkpt>
            <trkpt lon="101.157131" lat="14.719512">
                <ele>343.808594</ele>
                <time>2006-11-25T08:40:24Z</time>
            </trkpt>
            <trkpt lon="101.157067" lat="14.719212">
                <ele>339.482666</ele>
                <time>2006-11-25T08:40:33Z</time>
            </trkpt>
            <trkpt lon="101.157067" lat="14.719191">
                <ele>336.118164</ele>
                <time>2006-11-25T08:40:44Z</time>
            </trkpt>
            <trkpt lon="101.157324" lat="14.719019">
                <ele>334.195435</ele>
                <time>2006-11-25T08:41:00Z</time>
            </trkpt>
            <trkpt lon="101.157560" lat="14.718890">
                <ele>331.792114</ele>
                <time>2006-11-25T08:41:15Z</time>
            </trkpt>
            <trkpt lon="101.157582" lat="14.718869">
                <ele>331.792114</ele>
                <time>2006-11-25T08:41:16Z</time>
            </trkpt>
            <trkpt lon="101.157603" lat="14.718955">
                <ele>332.753540</ele>
                <time>2006-11-25T08:41:24Z</time>
            </trkpt>
            <trkpt lon="101.157646" lat="14.719040">
                <ele>332.753540</ele>
                <time>2006-11-25T08:41:30Z</time>
            </trkpt>
            <trkpt lon="101.157689" lat="14.719062">
                <ele>333.234131</ele>
                <time>2006-11-25T08:41:43Z</time>
            </trkpt>
            <trkpt lon="101.157711" lat="14.719062">
                <ele>333.714722</ele>
                <time>2006-11-25T08:41:54Z</time>
            </trkpt>
            <trkpt lon="101.157732" lat="14.719019">
                <ele>332.753540</ele>
                <time>2006-11-25T08:41:58Z</time>
            </trkpt>
            <trkpt lon="101.157861" lat="14.718826">
                <ele>331.311523</ele>
                <time>2006-11-25T08:42:13Z</time>
            </trkpt>
            <trkpt lon="101.157882" lat="14.718804">
                <ele>331.311523</ele>
                <time>2006-11-25T08:42:15Z</time>
            </trkpt>
            <trkpt lon="101.157990" lat="14.718719">
                <ele>331.311523</ele>
                <time>2006-11-25T08:42:25Z</time>
            </trkpt>
            <trkpt lon="101.158140" lat="14.718590">
                <ele>329.388916</ele>
                <time>2006-11-25T08:42:41Z</time>
            </trkpt>
            <trkpt lon="101.158247" lat="14.718504">
                <ele>329.388916</ele>
                <time>2006-11-25T08:42:54Z</time>
            </trkpt>
            <trkpt lon="101.158290" lat="14.718461">
                <ele>330.830933</ele>
                <time>2006-11-25T08:43:10Z</time>
            </trkpt>
            <trkpt lon="101.158440" lat="14.718397">
                <ele>329.869507</ele>
                <time>2006-11-25T08:43:21Z</time>
            </trkpt>
            <trkpt lon="101.158676" lat="14.718332">
                <ele>329.388916</ele>
                <time>2006-11-25T08:43:38Z</time>
            </trkpt>
            <trkpt lon="101.158783" lat="14.718225">
                <ele>329.869507</ele>
                <time>2006-11-25T08:43:50Z</time>
            </trkpt>
            <trkpt lon="101.158912" lat="14.718096">
                <ele>329.388916</ele>
                <time>2006-11-25T08:44:04Z</time>
            </trkpt>
            <trkpt lon="101.158955" lat="14.718075">
                <ele>329.388916</ele>
                <time>2006-11-25T08:44:08Z</time>
            </trkpt>
            <trkpt lon="101.159213" lat="14.717968">
                <ele>328.908325</ele>
                <time>2006-11-25T08:44:25Z</time>
            </trkpt>
            <trkpt lon="101.159470" lat="14.717860">
                <ele>327.946777</ele>
                <time>2006-11-25T08:44:38Z</time>
            </trkpt>
            <trkpt lon="101.159620" lat="14.717731">
                <ele>327.946777</ele>
                <time>2006-11-25T08:44:50Z</time>
            </trkpt>
            <trkpt lon="101.159728" lat="14.717646">
                <ele>327.466187</ele>
                <time>2006-11-25T08:44:58Z</time>
            </trkpt>
            <trkpt lon="101.159921" lat="14.717410">
                <ele>326.985596</ele>
                <time>2006-11-25T08:45:14Z</time>
            </trkpt>
            <trkpt lon="101.160071" lat="14.717281">
                <ele>326.504883</ele>
                <time>2006-11-25T08:45:28Z</time>
            </trkpt>
            <trkpt lon="101.160221" lat="14.717109">
                <ele>326.504883</ele>
                <time>2006-11-25T08:45:42Z</time>
            </trkpt>
            <trkpt lon="101.160221" lat="14.717023">
                <ele>325.543579</ele>
                <time>2006-11-25T08:45:46Z</time>
            </trkpt>
            <trkpt lon="101.160221" lat="14.716916">
                <ele>324.582275</ele>
                <time>2006-11-25T08:45:49Z</time>
            </trkpt>
            <trkpt lon="101.160135" lat="14.716680">
                <ele>323.140381</ele>
                <time>2006-11-25T08:45:54Z</time>
            </trkpt>
            <trkpt lon="101.159856" lat="14.715886">
                <ele>319.295044</ele>
                <time>2006-11-25T08:46:09Z</time>
            </trkpt>
            <trkpt lon="101.159835" lat="14.715779">
                <ele>319.295044</ele>
                <time>2006-11-25T08:46:11Z</time>
            </trkpt>
            <trkpt lon="101.159663" lat="14.715414">
                <ele>316.411011</ele>
                <time>2006-11-25T08:46:21Z</time>
            </trkpt>
            <trkpt lon="101.159642" lat="14.715328">
                <ele>315.449829</ele>
                <time>2006-11-25T08:46:23Z</time>
            </trkpt>
            <trkpt lon="101.159341" lat="14.714749">
                <ele>312.085205</ele>
                <time>2006-11-25T08:46:38Z</time>
            </trkpt>
            <trkpt lon="101.159298" lat="14.714642">
                <ele>312.085205</ele>
                <time>2006-11-25T08:46:41Z</time>
            </trkpt>
            <trkpt lon="101.158934" lat="14.714234">
                <ele>309.201172</ele>
                <time>2006-11-25T08:46:55Z</time>
            </trkpt>
            <trkpt lon="101.158741" lat="14.714041">
                <ele>307.278564</ele>
                <time>2006-11-25T08:47:06Z</time>
            </trkpt>
            <trkpt lon="101.158419" lat="14.713740">
                <ele>302.952515</ele>
                <time>2006-11-25T08:47:19Z</time>
            </trkpt>
            <trkpt lon="101.158397" lat="14.713697">
                <ele>302.471924</ele>
                <time>2006-11-25T08:47:20Z</time>
            </trkpt>
            <trkpt lon="101.158268" lat="14.713590">
                <ele>301.991333</ele>
                <time>2006-11-25T08:47:23Z</time>
            </trkpt>
            <trkpt lon="101.158161" lat="14.713440">
                <ele>299.107300</ele>
                <time>2006-11-25T08:47:29Z</time>
            </trkpt>
            <trkpt lon="101.158118" lat="14.713397">
                <ele>299.107300</ele>
                <time>2006-11-25T08:47:31Z</time>
            </trkpt>
            <trkpt lon="101.158183" lat="14.713311">
                <ele>298.626709</ele>
                <time>2006-11-25T08:47:35Z</time>
            </trkpt>
            <trkpt lon="101.158633" lat="14.712968">
                <ele>295.261963</ele>
                <time>2006-11-25T08:47:48Z</time>
            </trkpt>
            <trkpt lon="101.159277" lat="14.712367">
                <ele>291.897461</ele>
                <time>2006-11-25T08:48:02Z</time>
            </trkpt>
            <trkpt lon="101.159577" lat="14.712067">
                <ele>290.936157</ele>
                <time>2006-11-25T08:48:12Z</time>
            </trkpt>
            <trkpt lon="101.159492" lat="14.712002">
                <ele>290.936157</ele>
                <time>2006-11-25T08:48:18Z</time>
            </trkpt>
            <trkpt lon="101.158891" lat="14.711680">
                <ele>289.974854</ele>
                <time>2006-11-25T08:48:35Z</time>
            </trkpt>
            <trkpt lon="101.158762" lat="14.711530">
                <ele>290.455566</ele>
                <time>2006-11-25T08:48:40Z</time>
            </trkpt>
            <trkpt lon="101.158655" lat="14.711187">
                <ele>289.494141</ele>
                <time>2006-11-25T08:48:48Z</time>
            </trkpt>
            <trkpt lon="101.158226" lat="14.710629">
                <ele>289.494141</ele>
                <time>2006-11-25T08:49:03Z</time>
            </trkpt>
            <trkpt lon="101.157925" lat="14.710500">
                <ele>289.013550</ele>
                <time>2006-11-25T08:49:10Z</time>
            </trkpt>
            <trkpt lon="101.157646" lat="14.710479">
                <ele>288.532959</ele>
                <time>2006-11-25T08:49:16Z</time>
            </trkpt>
            <trkpt lon="101.156895" lat="14.710543">
                <ele>289.013550</ele>
                <time>2006-11-25T08:49:34Z</time>
            </trkpt>
            <trkpt lon="101.156702" lat="14.710543">
                <ele>290.936157</ele>
                <time>2006-11-25T08:49:47Z</time>
            </trkpt>
            <trkpt lon="101.156659" lat="14.710543">
                <ele>294.300781</ele>
                <time>2006-11-25T08:50:18Z</time>
            </trkpt>
            <trkpt lon="101.156659" lat="14.710565">
                <ele>294.781372</ele>
                <time>2006-11-25T08:50:52Z</time>
            </trkpt>
            <trkpt lon="101.156638" lat="14.710565">
                <ele>294.781372</ele>
                <time>2006-11-25T08:51:19Z</time>
            </trkpt>
            <trkpt lon="101.156616" lat="14.710586">
                <ele>297.184692</ele>
                <time>2006-11-25T08:51:35Z</time>
            </trkpt>
            <trkpt lon="101.156616" lat="14.710586">
                <ele>298.146118</ele>
                <time>2006-11-25T09:06:37Z</time>
            </trkpt>
            <trkpt lon="101.156616" lat="14.710586">
                <ele>296.223511</ele>
                <time>2006-11-25T09:06:59Z</time>
            </trkpt>
            <trkpt lon="101.156487" lat="14.710586">
                <ele>296.223511</ele>
                <time>2006-11-25T09:07:28Z</time>
            </trkpt>
            <trkpt lon="101.156294" lat="14.710565">
                <ele>295.742676</ele>
                <time>2006-11-25T09:07:42Z</time>
            </trkpt>
            <trkpt lon="101.156294" lat="14.710243">
                <ele>293.820068</ele>
                <time>2006-11-25T09:07:57Z</time>
            </trkpt>
            <trkpt lon="101.156080" lat="14.709749">
                <ele>292.378174</ele>
                <time>2006-11-25T09:08:15Z</time>
            </trkpt>
            <trkpt lon="101.156037" lat="14.709556">
                <ele>292.858765</ele>
                <time>2006-11-25T09:08:24Z</time>
            </trkpt>
            <trkpt lon="101.156251" lat="14.709320">
                <ele>291.416748</ele>
                <time>2006-11-25T09:08:37Z</time>
            </trkpt>
            <trkpt lon="101.156316" lat="14.709213">
                <ele>290.455566</ele>
                <time>2006-11-25T09:08:42Z</time>
            </trkpt>
            <trkpt lon="101.156402" lat="14.709063">
                <ele>289.974854</ele>
                <time>2006-11-25T09:08:51Z</time>
            </trkpt>
            <trkpt lon="101.156638" lat="14.709063">
                <ele>290.455566</ele>
                <time>2006-11-25T09:09:04Z</time>
            </trkpt>
            <trkpt lon="101.157002" lat="14.709277">
                <ele>287.090820</ele>
                <time>2006-11-25T09:09:18Z</time>
            </trkpt>
            <trkpt lon="101.157260" lat="14.709513">
                <ele>285.648804</ele>
                <time>2006-11-25T09:09:30Z</time>
            </trkpt>
            <trkpt lon="101.157453" lat="14.709706">
                <ele>284.206909</ele>
                <time>2006-11-25T09:09:40Z</time>
            </trkpt>
            <trkpt lon="101.157603" lat="14.709814">
                <ele>284.206909</ele>
                <time>2006-11-25T09:09:51Z</time>
            </trkpt>
            <trkpt lon="101.157668" lat="14.709771">
                <ele>284.687622</ele>
                <time>2006-11-25T09:10:01Z</time>
            </trkpt>
            <trkpt lon="101.157818" lat="14.709706">
                <ele>280.842407</ele>
                <time>2006-11-25T09:10:21Z</time>
            </trkpt>
            <trkpt lon="101.157904" lat="14.709706">
                <ele>280.842407</ele>
                <time>2006-11-25T09:10:35Z</time>
            </trkpt>
            <trkpt lon="101.158140" lat="14.709663">
                <ele>281.803589</ele>
                <time>2006-11-25T09:10:55Z</time>
            </trkpt>
            <trkpt lon="101.158268" lat="14.709599">
                <ele>281.803589</ele>
                <time>2006-11-25T09:11:13Z</time>
            </trkpt>
            <trkpt lon="101.158268" lat="14.709578">
                <ele>281.322998</ele>
                <time>2006-11-25T09:11:16Z</time>
            </trkpt>
            <trkpt lon="101.158247" lat="14.709277">
                <ele>283.726196</ele>
                <time>2006-11-25T09:11:33Z</time>
            </trkpt>
            <trkpt lon="101.158204" lat="14.708848">
                <ele>281.803589</ele>
                <time>2006-11-25T09:11:52Z</time>
            </trkpt>
            <trkpt lon="101.158161" lat="14.708440">
                <ele>280.361694</ele>
                <time>2006-11-25T09:12:06Z</time>
            </trkpt>
            <trkpt lon="101.158118" lat="14.707947">
                <ele>284.206909</ele>
                <time>2006-11-25T09:12:27Z</time>
            </trkpt>
            <trkpt lon="101.158032" lat="14.707432">
                <ele>285.168213</ele>
                <time>2006-11-25T09:12:44Z</time>
            </trkpt>
            <trkpt lon="101.157990" lat="14.706874">
                <ele>283.726196</ele>
                <time>2006-11-25T09:12:59Z</time>
            </trkpt>
            <trkpt lon="101.158032" lat="14.706745">
                <ele>283.245605</ele>
                <time>2006-11-25T09:13:02Z</time>
            </trkpt>
            <trkpt lon="101.158011" lat="14.706380">
                <ele>279.880859</ele>
                <time>2006-11-25T09:13:11Z</time>
            </trkpt>
            <trkpt lon="101.157990" lat="14.705694">
                <ele>279.400269</ele>
                <time>2006-11-25T09:13:30Z</time>
            </trkpt>
            <trkpt lon="101.158075" lat="14.705479">
                <ele>277.958252</ele>
                <time>2006-11-25T09:13:36Z</time>
            </trkpt>
            <trkpt lon="101.157904" lat="14.705136">
                <ele>275.555054</ele>
                <time>2006-11-25T09:13:45Z</time>
            </trkpt>
            <trkpt lon="101.157732" lat="14.705029">
                <ele>276.516357</ele>
                <time>2006-11-25T09:13:51Z</time>
            </trkpt>
            <trkpt lon="101.157646" lat="14.704878">
                <ele>276.997070</ele>
                <time>2006-11-25T09:13:55Z</time>
            </trkpt>
            <trkpt lon="101.157389" lat="14.704750">
                <ele>276.997070</ele>
                <time>2006-11-25T09:14:01Z</time>
            </trkpt>
            <trkpt lon="101.157324" lat="14.704556">
                <ele>275.555054</ele>
                <time>2006-11-25T09:14:06Z</time>
            </trkpt>
            <trkpt lon="101.157517" lat="14.703999">
                <ele>272.190430</ele>
                <time>2006-11-25T09:14:19Z</time>
            </trkpt>
            <trkpt lon="101.157818" lat="14.703012">
                <ele>269.787109</ele>
                <time>2006-11-25T09:14:35Z</time>
            </trkpt>
            <trkpt lon="101.157904" lat="14.702539">
                <ele>271.229126</ele>
                <time>2006-11-25T09:14:49Z</time>
            </trkpt>
            <trkpt lon="101.158075" lat="14.702303">
                <ele>269.787109</ele>
                <time>2006-11-25T09:15:01Z</time>
            </trkpt>
            <trkpt lon="101.158762" lat="14.702346">
                <ele>267.383911</ele>
                <time>2006-11-25T09:15:15Z</time>
            </trkpt>
            <trkpt lon="101.158955" lat="14.702325">
                <ele>266.903198</ele>
                <time>2006-11-25T09:15:18Z</time>
            </trkpt>
            <trkpt lon="101.160307" lat="14.702303">
                <ele>262.096558</ele>
                <time>2006-11-25T09:15:36Z</time>
            </trkpt>
            <trkpt lon="101.161208" lat="14.702282">
                <ele>260.173950</ele>
                <time>2006-11-25T09:15:48Z</time>
            </trkpt>
            <trkpt lon="101.161530" lat="14.702475">
                <ele>259.693359</ele>
                <time>2006-11-25T09:15:53Z</time>
            </trkpt>
            <trkpt lon="101.162088" lat="14.702690">
                <ele>258.731934</ele>
                <time>2006-11-25T09:16:05Z</time>
            </trkpt>
            <trkpt lon="101.162496" lat="14.702818">
                <ele>256.328735</ele>
                <time>2006-11-25T09:16:10Z</time>
            </trkpt>
            <trkpt lon="101.163418" lat="14.703398">
                <ele>252.483398</ele>
                <time>2006-11-25T09:16:22Z</time>
            </trkpt>
            <trkpt lon="101.164341" lat="14.704084">
                <ele>246.234863</ele>
                <time>2006-11-25T09:16:36Z</time>
            </trkpt>
            <trkpt lon="101.165650" lat="14.704964">
                <ele>241.908936</ele>
                <time>2006-11-25T09:16:57Z</time>
            </trkpt>
            <trkpt lon="101.166422" lat="14.705157">
                <ele>241.428223</ele>
                <time>2006-11-25T09:17:10Z</time>
            </trkpt>
            <trkpt lon="101.167088" lat="14.705222">
                <ele>238.544312</ele>
                <time>2006-11-25T09:17:25Z</time>
            </trkpt>
            <trkpt lon="101.167088" lat="14.705200">
                <ele>239.024902</ele>
                <time>2006-11-25T09:17:41Z</time>
            </trkpt>
            <trkpt lon="101.167195" lat="14.704986">
                <ele>236.140991</ele>
                <time>2006-11-25T09:17:55Z</time>
            </trkpt>
            <trkpt lon="101.167517" lat="14.704170">
                <ele>233.737671</ele>
                <time>2006-11-25T09:18:13Z</time>
            </trkpt>
            <trkpt lon="101.167688" lat="14.703720">
                <ele>232.295776</ele>
                <time>2006-11-25T09:18:22Z</time>
            </trkpt>
            <trkpt lon="101.168225" lat="14.702475">
                <ele>228.450439</ele>
                <time>2006-11-25T09:18:47Z</time>
            </trkpt>
            <trkpt lon="101.168289" lat="14.702325">
                <ele>228.450439</ele>
                <time>2006-11-25T09:18:50Z</time>
            </trkpt>
            <trkpt lon="101.168418" lat="14.702046">
                <ele>226.527832</ele>
                <time>2006-11-25T09:18:57Z</time>
            </trkpt>
            <trkpt lon="101.168311" lat="14.701960">
                <ele>226.527832</ele>
                <time>2006-11-25T09:19:02Z</time>
            </trkpt>
            <trkpt lon="101.168075" lat="14.701724">
                <ele>230.373047</ele>
                <time>2006-11-25T09:19:16Z</time>
            </trkpt>
            <trkpt lon="101.167753" lat="14.701273">
                <ele>235.179688</ele>
                <time>2006-11-25T09:19:36Z</time>
            </trkpt>
            <trkpt lon="101.167302" lat="14.700694">
                <ele>238.063599</ele>
                <time>2006-11-25T09:20:02Z</time>
            </trkpt>
            <trkpt lon="101.166894" lat="14.700158">
                <ele>239.986206</ele>
                <time>2006-11-25T09:20:23Z</time>
            </trkpt>
            <trkpt lon="101.166294" lat="14.699321">
                <ele>239.024902</ele>
                <time>2006-11-25T09:20:43Z</time>
            </trkpt>
            <trkpt lon="101.166079" lat="14.698999">
                <ele>239.986206</ele>
                <time>2006-11-25T09:20:51Z</time>
            </trkpt>
            <trkpt lon="101.166315" lat="14.698570">
                <ele>237.102295</ele>
                <time>2006-11-25T09:21:05Z</time>
            </trkpt>
            <trkpt lon="101.166379" lat="14.698484">
                <ele>237.582886</ele>
                <time>2006-11-25T09:21:07Z</time>
            </trkpt>
            <trkpt lon="101.166401" lat="14.698226">
                <ele>233.737671</ele>
                <time>2006-11-25T09:21:13Z</time>
            </trkpt>
            <trkpt lon="101.166379" lat="14.697840">
                <ele>231.814941</ele>
                <time>2006-11-25T09:21:27Z</time>
            </trkpt>
            <trkpt lon="101.166422" lat="14.697754">
                <ele>230.853760</ele>
                <time>2006-11-25T09:21:41Z</time>
            </trkpt>
            <trkpt lon="101.166766" lat="14.697797">
                <ele>226.527832</ele>
                <time>2006-11-25T09:22:03Z</time>
            </trkpt>
            <trkpt lon="101.166873" lat="14.697862">
                <ele>227.489136</ele>
                <time>2006-11-25T09:22:22Z</time>
            </trkpt>
            <trkpt lon="101.167023" lat="14.697883">
                <ele>230.853760</ele>
                <time>2006-11-25T09:23:01Z</time>
            </trkpt>
            <trkpt lon="101.167431" lat="14.697819">
                <ele>230.373047</ele>
                <time>2006-11-25T09:23:21Z</time>
            </trkpt>
            <trkpt lon="101.167710" lat="14.697647">
                <ele>229.411743</ele>
                <time>2006-11-25T09:23:36Z</time>
            </trkpt>
            <trkpt lon="101.167903" lat="14.697239">
                <ele>231.814941</ele>
                <time>2006-11-25T09:23:54Z</time>
            </trkpt>
            <trkpt lon="101.168118" lat="14.696896">
                <ele>231.814941</ele>
                <time>2006-11-25T09:24:08Z</time>
            </trkpt>
            <trkpt lon="101.168268" lat="14.696403">
                <ele>229.892334</ele>
                <time>2006-11-25T09:24:19Z</time>
            </trkpt>
            <trkpt lon="101.168289" lat="14.696360">
                <ele>229.892334</ele>
                <time>2006-11-25T09:24:20Z</time>
            </trkpt>
            <trkpt lon="101.168418" lat="14.696081">
                <ele>229.411743</ele>
                <time>2006-11-25T09:24:32Z</time>
            </trkpt>
            <trkpt lon="101.168933" lat="14.696167">
                <ele>229.411743</ele>
                <time>2006-11-25T09:24:47Z</time>
            </trkpt>
            <trkpt lon="101.169341" lat="14.696252">
                <ele>226.527832</ele>
                <time>2006-11-25T09:24:59Z</time>
            </trkpt>
            <trkpt lon="101.170049" lat="14.696274">
                <ele>224.605225</ele>
                <time>2006-11-25T09:25:17Z</time>
            </trkpt>
            <trkpt lon="101.170585" lat="14.696145">
                <ele>225.085938</ele>
                <time>2006-11-25T09:25:36Z</time>
            </trkpt>
            <trkpt lon="101.170671" lat="14.696124">
                <ele>224.605225</ele>
                <time>2006-11-25T09:25:39Z</time>
            </trkpt>
            <trkpt lon="101.170692" lat="14.696059">
                <ele>224.124512</ele>
                <time>2006-11-25T09:25:43Z</time>
            </trkpt>
            <trkpt lon="101.170607" lat="14.695737">
                <ele>222.682495</ele>
                <time>2006-11-25T09:25:57Z</time>
            </trkpt>
            <trkpt lon="101.170564" lat="14.695458">
                <ele>221.240601</ele>
                <time>2006-11-25T09:26:10Z</time>
            </trkpt>
            <trkpt lon="101.170456" lat="14.695137">
                <ele>218.356567</ele>
                <time>2006-11-25T09:26:23Z</time>
            </trkpt>
            <trkpt lon="101.170392" lat="14.695029">
                <ele>211.146729</ele>
                <time>2006-11-25T09:26:34Z</time>
            </trkpt>
            <trkpt lon="101.170349" lat="14.694943">
                <ele>212.108032</ele>
                <time>2006-11-25T09:26:51Z</time>
            </trkpt>
            <trkpt lon="101.170349" lat="14.694943">
                <ele>212.588623</ele>
                <time>2006-11-25T09:26:52Z</time>
            </trkpt>
            <trkpt lon="101.170349" lat="14.694815">
                <ele>215.472656</ele>
                <time>2006-11-25T09:27:15Z</time>
            </trkpt>
            <trkpt lon="101.170349" lat="14.694707">
                <ele>214.030640</ele>
                <time>2006-11-25T09:27:25Z</time>
            </trkpt>
            <trkpt lon="101.170306" lat="14.694643">
                <ele>216.914673</ele>
                <time>2006-11-25T09:27:44Z</time>
            </trkpt>
            <trkpt lon="101.170306" lat="14.694664">
                <ele>216.914673</ele>
                <time>2006-11-25T09:27:45Z</time>
            </trkpt>
            <trkpt lon="101.170349" lat="14.694879">
                <ele>216.914673</ele>
                <time>2006-11-25T09:28:05Z</time>
            </trkpt>
            <trkpt lon="101.170413" lat="14.694986">
                <ele>215.472656</ele>
                <time>2006-11-25T09:28:25Z</time>
            </trkpt>
            <trkpt lon="101.170521" lat="14.694858">
                <ele>215.472656</ele>
                <time>2006-11-25T09:28:45Z</time>
            </trkpt>
            <trkpt lon="101.170542" lat="14.694815">
                <ele>215.472656</ele>
                <time>2006-11-25T09:28:51Z</time>
            </trkpt>
            <trkpt lon="101.170650" lat="14.694664">
                <ele>215.953247</ele>
                <time>2006-11-25T09:29:13Z</time>
            </trkpt>
            <trkpt lon="101.170757" lat="14.694579">
                <ele>214.991943</ele>
                <time>2006-11-25T09:29:36Z</time>
            </trkpt>
            <trkpt lon="101.170778" lat="14.694536">
                <ele>214.991943</ele>
                <time>2006-11-25T09:29:49Z</time>
            </trkpt>
            <trkpt lon="101.170821" lat="14.694471">
                <ele>213.069336</ele>
                <time>2006-11-25T09:30:05Z</time>
            </trkpt>
            <trkpt lon="101.170843" lat="14.694343">
                <ele>213.069336</ele>
                <time>2006-11-25T09:30:27Z</time>
            </trkpt>
            <trkpt lon="101.170886" lat="14.694235">
                <ele>212.108032</ele>
                <time>2006-11-25T09:30:47Z</time>
            </trkpt>
            <trkpt lon="101.171079" lat="14.694149">
                <ele>212.108032</ele>
                <time>2006-11-25T09:31:08Z</time>
            </trkpt>
            <trkpt lon="101.171122" lat="14.694149">
                <ele>213.069336</ele>
                <time>2006-11-25T09:31:21Z</time>
            </trkpt>
            <trkpt lon="101.171165" lat="14.694149">
                <ele>212.108032</ele>
                <time>2006-11-25T09:31:35Z</time>
            </trkpt>
            <trkpt lon="101.171165" lat="14.694149">
                <ele>211.627441</ele>
                <time>2006-11-25T09:32:03Z</time>
            </trkpt>
            <trkpt lon="101.171207" lat="14.693849">
                <ele>210.185425</ele>
                <time>2006-11-25T09:32:17Z</time>
            </trkpt>
            <trkpt lon="101.171379" lat="14.693334">
                <ele>208.743408</ele>
                <time>2006-11-25T09:32:27Z</time>
            </trkpt>
            <trkpt lon="101.171379" lat="14.693162">
                <ele>208.262817</ele>
                <time>2006-11-25T09:32:30Z</time>
            </trkpt>
            <trkpt lon="101.171229" lat="14.692819">
                <ele>206.340088</ele>
                <time>2006-11-25T09:32:36Z</time>
            </trkpt>
            <trkpt lon="101.171207" lat="14.692583">
                <ele>206.340088</ele>
                <time>2006-11-25T09:32:40Z</time>
            </trkpt>
            <trkpt lon="101.171379" lat="14.691982">
                <ele>201.533569</ele>
                <time>2006-11-25T09:32:50Z</time>
            </trkpt>
            <trkpt lon="101.171315" lat="14.691532">
                <ele>197.688232</ele>
                <time>2006-11-25T09:32:58Z</time>
            </trkpt>
            <trkpt lon="101.170864" lat="14.690952">
                <ele>197.207520</ele>
                <time>2006-11-25T09:33:10Z</time>
            </trkpt>
            <trkpt lon="101.170800" lat="14.690909">
                <ele>199.610840</ele>
                <time>2006-11-25T09:33:26Z</time>
            </trkpt>
            <trkpt lon="101.170607" lat="14.690781">
                <ele>199.130127</ele>
                <time>2006-11-25T09:33:31Z</time>
            </trkpt>
            <trkpt lon="101.170435" lat="14.690673">
                <ele>199.130127</ele>
                <time>2006-11-25T09:33:35Z</time>
            </trkpt>
            <trkpt lon="101.170006" lat="14.690566">
                <ele>197.688232</ele>
                <time>2006-11-25T09:33:42Z</time>
            </trkpt>
            <trkpt lon="101.169598" lat="14.690437">
                <ele>194.804321</ele>
                <time>2006-11-25T09:33:55Z</time>
            </trkpt>
            <trkpt lon="101.169105" lat="14.690437">
                <ele>195.765625</ele>
                <time>2006-11-25T09:34:14Z</time>
            </trkpt>
            <trkpt lon="101.168761" lat="14.690394">
                <ele>192.881714</ele>
                <time>2006-11-25T09:34:27Z</time>
            </trkpt>
            <trkpt lon="101.168332" lat="14.690437">
                <ele>190.478394</ele>
                <time>2006-11-25T09:34:34Z</time>
            </trkpt>
            <trkpt lon="101.168096" lat="14.690351">
                <ele>189.036377</ele>
                <time>2006-11-25T09:34:39Z</time>
            </trkpt>
            <trkpt lon="101.168075" lat="14.690287">
                <ele>184.710571</ele>
                <time>2006-11-25T09:34:49Z</time>
            </trkpt>
            <trkpt lon="101.168032" lat="14.690137">
                <ele>185.191162</ele>
                <time>2006-11-25T09:35:04Z</time>
            </trkpt>
            <trkpt lon="101.167924" lat="14.690051">
                <ele>186.633179</ele>
                <time>2006-11-25T09:35:20Z</time>
            </trkpt>
            <trkpt lon="101.167710" lat="14.690073">
                <ele>188.075073</ele>
                <time>2006-11-25T09:35:29Z</time>
            </trkpt>
            <trkpt lon="101.167023" lat="14.690180">
                <ele>184.710571</ele>
                <time>2006-11-25T09:35:40Z</time>
            </trkpt>
            <trkpt lon="101.166787" lat="14.690180">
                <ele>184.229858</ele>
                <time>2006-11-25T09:35:51Z</time>
            </trkpt>
            <trkpt lon="101.166766" lat="14.690201">
                <ele>184.229858</ele>
                <time>2006-11-25T09:35:52Z</time>
            </trkpt>
            <trkpt lon="101.166723" lat="14.690201">
                <ele>184.229858</ele>
                <time>2006-11-25T09:36:04Z</time>
            </trkpt>
            <trkpt lon="101.166744" lat="14.690201">
                <ele>186.152466</ele>
                <time>2006-11-25T09:36:15Z</time>
            </trkpt>
            <trkpt lon="101.166830" lat="14.690180">
                <ele>186.152466</ele>
                <time>2006-11-25T09:36:20Z</time>
            </trkpt>
            <trkpt lon="101.167130" lat="14.690051">
                <ele>182.307129</ele>
                <time>2006-11-25T09:36:34Z</time>
            </trkpt>
            <trkpt lon="101.167238" lat="14.689837">
                <ele>175.577881</ele>
                <time>2006-11-25T09:36:46Z</time>
            </trkpt>
            <trkpt lon="101.167259" lat="14.689815">
                <ele>172.213257</ele>
                <time>2006-11-25T09:37:09Z</time>
            </trkpt>
            <trkpt lon="101.167302" lat="14.689708">
                <ele>171.732666</ele>
                <time>2006-11-25T09:37:25Z</time>
            </trkpt>
            <trkpt lon="101.167367" lat="14.689643">
                <ele>171.252075</ele>
                <time>2006-11-25T09:37:39Z</time>
            </trkpt>
            <trkpt lon="101.167431" lat="14.689536">
                <ele>169.329468</ele>
                <time>2006-11-25T09:37:59Z</time>
            </trkpt>
            <trkpt lon="101.167431" lat="14.689429">
                <ele>169.810059</ele>
                <time>2006-11-25T09:38:16Z</time>
            </trkpt>
            <trkpt lon="101.167431" lat="14.689407">
                <ele>169.810059</ele>
                <time>2006-11-25T09:38:18Z</time>
            </trkpt>
            <trkpt lon="101.167409" lat="14.689364">
                <ele>170.771362</ele>
                <time>2006-11-25T09:38:22Z</time>
            </trkpt>
            <trkpt lon="101.167345" lat="14.689171">
                <ele>170.290649</ele>
                <time>2006-11-25T09:38:46Z</time>
            </trkpt>
            <trkpt lon="101.167367" lat="14.688807">
                <ele>169.810059</ele>
                <time>2006-11-25T09:39:08Z</time>
            </trkpt>
            <trkpt lon="101.167409" lat="14.688270">
                <ele>169.810059</ele>
                <time>2006-11-25T09:39:34Z</time>
            </trkpt>
            <trkpt lon="101.167517" lat="14.687798">
                <ele>164.042114</ele>
                <time>2006-11-25T09:39:56Z</time>
            </trkpt>
            <trkpt lon="101.167581" lat="14.687390">
                <ele>162.119507</ele>
                <time>2006-11-25T09:40:14Z</time>
            </trkpt>
            <trkpt lon="101.167431" lat="14.687154">
                <ele>157.793579</ele>
                <time>2006-11-25T09:40:32Z</time>
            </trkpt>
            <trkpt lon="101.167409" lat="14.687111">
                <ele>155.390259</ele>
                <time>2006-11-25T09:40:36Z</time>
            </trkpt>
            <trkpt lon="101.167281" lat="14.686854">
                <ele>148.661011</ele>
                <time>2006-11-25T09:40:59Z</time>
            </trkpt>
            <trkpt lon="101.167216" lat="14.686790">
                <ele>149.622314</ele>
                <time>2006-11-25T09:41:08Z</time>
            </trkpt>
            <trkpt lon="101.167045" lat="14.686704">
                <ele>149.141602</ele>
                <time>2006-11-25T09:41:22Z</time>
            </trkpt>
            <trkpt lon="101.167002" lat="14.686682">
                <ele>146.738403</ele>
                <time>2006-11-25T09:41:37Z</time>
            </trkpt>
            <trkpt lon="101.166873" lat="14.686639">
                <ele>146.257812</ele>
                <time>2006-11-25T09:41:44Z</time>
            </trkpt>
            <trkpt lon="101.166852" lat="14.686553">
                <ele>144.815796</ele>
                <time>2006-11-25T09:41:48Z</time>
            </trkpt>
            <trkpt lon="101.166723" lat="14.686167">
                <ele>143.854370</ele>
                <time>2006-11-25T09:42:07Z</time>
            </trkpt>
            <trkpt lon="101.166680" lat="14.685717">
                <ele>147.218994</ele>
                <time>2006-11-25T09:42:28Z</time>
            </trkpt>
            <trkpt lon="101.166465" lat="14.685395">
                <ele>147.218994</ele>
                <time>2006-11-25T09:42:49Z</time>
            </trkpt>
            <trkpt lon="101.166422" lat="14.685223">
                <ele>146.738403</ele>
                <time>2006-11-25T09:43:09Z</time>
            </trkpt>
            <trkpt lon="101.166401" lat="14.685073">
                <ele>146.738403</ele>
                <time>2006-11-25T09:43:35Z</time>
            </trkpt>
            <trkpt lon="101.166358" lat="14.684966">
                <ele>146.738403</ele>
                <time>2006-11-25T09:43:55Z</time>
            </trkpt>
            <trkpt lon="101.166315" lat="14.684858">
                <ele>147.699707</ele>
                <time>2006-11-25T09:44:09Z</time>
            </trkpt>
            <trkpt lon="101.166122" lat="14.684772">
                <ele>147.699707</ele>
                <time>2006-11-25T09:44:33Z</time>
            </trkpt>
            <trkpt lon="101.165993" lat="14.684708">
                <ele>151.064209</ele>
                <time>2006-11-25T09:44:52Z</time>
            </trkpt>
            <trkpt lon="101.165907" lat="14.684665">
                <ele>154.428955</ele>
                <time>2006-11-25T09:45:09Z</time>
            </trkpt>
            <trkpt lon="101.165864" lat="14.684579">
                <ele>164.522705</ele>
                <time>2006-11-25T09:45:26Z</time>
            </trkpt>
            <trkpt lon="101.165864" lat="14.684558">
                <ele>172.693970</ele>
                <time>2006-11-25T09:46:01Z</time>
            </trkpt>
            <trkpt lon="101.165907" lat="14.684472">
                <ele>175.577881</ele>
                <time>2006-11-25T09:46:16Z</time>
            </trkpt>
            <trkpt lon="101.165972" lat="14.684386">
                <ele>179.423218</ele>
                <time>2006-11-25T09:46:30Z</time>
            </trkpt>
            <trkpt lon="101.165993" lat="14.684386">
                <ele>179.903809</ele>
                <time>2006-11-25T09:46:35Z</time>
            </trkpt>
        </trkseg>
    </trk>
</gpx>